Home > Products > Valid Products > TAF

000
FTUS45 KSLC 011726
TAFOGD
TAF
KOGD 011726Z 0118/0218 32010KT P6SM SCT100
     FM020600 32006KT P6SM SCT070 BKN100=



000
FTUS45 KSLC 011726
TAFLGU
TAF
KLGU 011726Z 0118/0218 30012G20KT P6SM SCT060 BKN150=



000
FTUS45 KSLC 011726
TAFPVU
TAF
KPVU 011726Z 0118/0218 31012G19KT P6SM FEW080 SCT120
     FM020000 30009KT P6SM SCT070 SCT110
     FM020700 33010G15KT P6SM SCT070 BKN110
      AMD LTD TO CLD VIS AND WIND=



000
FTUS45 KSLC 011726
TAFPVU
TAF
KPVU 011726Z 0118/0218 31012G19KT P6SM FEW080 SCT120
     FM020000 30009KT P6SM SCT070 SCT110
     FM020700 33010G15KT P6SM SCT070 BKN110
      AMD LTD TO CLD VIS AND WIND=



000
FTUS45 KSLC 011726
TAFSLC
TAF
KSLC 011726Z 0118/0224 34008KT P6SM SCT050 SCT100
     FM020800 33006KT P6SM SCT070 BKN100
     FM021800 33009KT P6SM SCT070 BKN150=



000
FTUS45 KSLC 011726
TAFSGU
TAF
KSGU 011726Z 0118/0218 20008KT P6SM SKC
     FM012000 26010KT P6SM SCT250
     FM020400 12007KT P6SM SCT250
     FM021500 28014G24KT P6SM SCT060 SCT120
      AMD LTD TO CLD VIS AND WIND=



000
FTUS45 KSLC 011726
TAFBCE
TAF
KBCE 011726Z 0118/0218 32011KT P6SM FEW100
     FM012000 29013G20KT P6SM SCT100 BKN200
     FM020200 27008KT P6SM FEW100 SCT200
     FM021200 27015G25KT P6SM SCT060 BKN120=



000
FTUS45 KSLC 011726
TAFENV
TAF
KENV 011726Z 0118/0218 09008KT P6SM SCT090 BKN200
     FM020200 03008KT P6SM SCT080 BKN150
     FM020500 34018G28KT P6SM SCT060 BKN100
      AMD LTD TO CLD VIS AND WIND=



000
FTUS45 KSLC 011726
TAFCDC
TAF
KCDC 011726Z 0118/0218 01008KT P6SM SCT045 SCT120
     FM012100 29008KT P6SM FEW080 SCT200
     FM020200 19007KT P6SM FEW080 SCT200
     FM021400 01010KT P6SM SCT060 BKN120=



000
FTUS45 KSLC 011726
TAFSGU
TAF
KSGU 011726Z 0118/0218 20008KT P6SM SKC
     FM012000 26010KT P6SM SCT250
     FM020400 12007KT P6SM SCT250
     FM021500 28014G24KT P6SM SCT060 SCT120
      AMD LTD TO CLD VIS AND WIND=



000
FTUS45 KSLC 011726
TAFSLC
TAF
KSLC 011726Z 0118/0224 34008KT P6SM SCT050 SCT100
     FM020800 33006KT P6SM SCT070 BKN100
     FM021800 33009KT P6SM SCT070 BKN150=



000
FTUS45 KSLC 011726
TAFCDC
TAF
KCDC 011726Z 0118/0218 01008KT P6SM SCT045 SCT120
     FM012100 29008KT P6SM FEW080 SCT200
     FM020200 19007KT P6SM FEW080 SCT200
     FM021400 01010KT P6SM SCT060 BKN120=



000
FTUS45 KSLC 011726
TAFBCE
TAF
KBCE 011726Z 0118/0218 32011KT P6SM FEW100
     FM012000 29013G20KT P6SM SCT100 BKN200
     FM020200 27008KT P6SM FEW100 SCT200
     FM021200 27015G25KT P6SM SCT060 BKN120=



000
FTUS45 KSLC 011726
TAFOGD
TAF
KOGD 011726Z 0118/0218 32010KT P6SM SCT100
     FM020600 32006KT P6SM SCT070 BKN100=



000
FTUS45 KSLC 011545 AAC
TAFSGU
TAF AMD
KSGU 011545Z 0116/0212 02010KT P6SM SKC
     FM012000 26010KT P6SM SCT250
     FM020400 12007KT P6SM SCT250
      AMD LTD TO CLD VIS AND WIND=



000
FTUS45 KSLC 011545 AAC
TAFSGU
TAF AMD
KSGU 011545Z 0116/0212 02010KT P6SM SKC
     FM012000 26010KT P6SM SCT250
     FM020400 12007KT P6SM SCT250
      AMD LTD TO CLD VIS AND WIND=



000
FTUS45 KSLC 011532 AAB
TAFENV
TAF AMD
KENV 011532Z 0116/0212 33011KT P6SM FEW050 SCT200
     FM011800 09008KT P6SM SCT090 BKN200
     FM020200 34008KT P6SM SCT080 BKN150
     FM020500 34014G21KT P6SM SCT070 BKN120
      AMD LTD TO CLD VIS AND WIND=



000
FTUS45 KSLC 011532 AAB
TAFENV
TAF AMD
KENV 011532Z 0116/0212 33011KT P6SM FEW050 SCT200
     FM011800 09008KT P6SM SCT090 BKN200
     FM020200 34008KT P6SM SCT080 BKN150
     FM020500 34014G21KT P6SM SCT070 BKN120
      AMD LTD TO CLD VIS AND WIND=



000
FTUS45 KSLC 011531 AAB
TAFSGU
TAF AMD
KSGU 011531Z 0116/0212 06015G25KT P6SM SKC
     FM012000 26010KT P6SM SCT250
     FM020400 12007KT P6SM SCT250
      AMD LTD TO CLD VIS AND WIND=



000
FTUS45 KSLC 011531 AAB
TAFSGU
TAF AMD
KSGU 011531Z 0116/0212 06015G25KT P6SM SKC
     FM012000 26010KT P6SM SCT250
     FM020400 12007KT P6SM SCT250
      AMD LTD TO CLD VIS AND WIND=



000
FTUS45 KSLC 011505 AAB
TAFSLC
TAF AMD
KSLC 011505Z 0115/0218 34011KT P6SM FEW050 SCT100
     FM020400 33006KT P6SM SCT070 BKN100=



000
FTUS45 KSLC 011505 AAB
TAFSLC
TAF AMD
KSLC 011505Z 0115/0218 34011KT P6SM FEW050 SCT100
     FM020400 33006KT P6SM SCT070 BKN100=



000
FTUS45 KSLC 011505 AAB
TAFSLC
TAF AMD
KSLC 011505Z 0115/0218 34011KT P6SM FEW050 SCT100
     FM020400 33006KT P6SM SCT070 BKN100=



000
FTUS45 KSLC 011505 AAB
TAFSLC
TAF AMD
KSLC 011505Z 0115/0218 34011KT P6SM FEW050 SCT100
     FM020400 33006KT P6SM SCT070 BKN100=



000
FTUS45 KSLC 011435 AAA
TAFENV
TAF AMD
KENV 011435Z 0115/0212 36007KT P6SM FEW050 SCT200
     FM011800 09008KT P6SM SCT090 BKN200
     FM020200 34008KT P6SM SCT080 BKN150
     FM020500 34014G21KT P6SM SCT070 BKN120
      AMD LTD TO CLD VIS AND WIND=



000
FTUS45 KSLC 011435 AAA
TAFENV
TAF AMD
KENV 011435Z 0115/0212 36007KT P6SM FEW050 SCT200
     FM011800 09008KT P6SM SCT090 BKN200
     FM020200 34008KT P6SM SCT080 BKN150
     FM020500 34014G21KT P6SM SCT070 BKN120
      AMD LTD TO CLD VIS AND WIND=



000
FTUS45 KSLC 011435 AAA
TAFENV
TAF AMD
KENV 011435Z 0115/0212 36007KT P6SM FEW050 SCT200
     FM011800 09008KT P6SM SCT090 BKN200
     FM020200 34008KT P6SM SCT080 BKN150
     FM020500 34014G21KT P6SM SCT070 BKN120
      AMD LTD TO CLD VIS AND WIND=



000
FTUS45 KSLC 011435 AAA
TAFENV
TAF AMD
KENV 011435Z 0115/0212 36007KT P6SM FEW050 SCT200
     FM011800 09008KT P6SM SCT090 BKN200
     FM020200 34008KT P6SM SCT080 BKN150
     FM020500 34014G21KT P6SM SCT070 BKN120
      AMD LTD TO CLD VIS AND WIND=



000
FTUS45 KSLC 011434 AAA
TAFBCE
TAF AMD
KBCE 011434Z 0115/0212 29011KT P6SM FEW100
     FM011700 29013G20KT P6SM SCT100 BKN200
     FM020200 27008KT P6SM FEW100 SCT200=



000
FTUS45 KSLC 011434 AAB
TAFCDC
TAF AMD
KCDC 011434Z 0115/0212 36011KT P6SM BKN045 BKN120
     FM011700 01008KT P6SM SCT045 BKN120
     FM012100 29008KT P6SM FEW080 SCT200
     FM020200 19007KT P6SM FEW080 SCT200=



000
FTUS45 KSLC 011434 AAA
TAFOGD
TAF AMD
KOGD 011434Z 0115/0212 32010KT P6SM SCT100
     FM020400 32006KT P6SM SCT070 BKN100=



000
FTUS45 KSLC 011434 AAA
TAFBCE
TAF AMD
KBCE 011434Z 0115/0212 29011KT P6SM FEW100
     FM011700 29013G20KT P6SM SCT100 BKN200
     FM020200 27008KT P6SM FEW100 SCT200=



000
FTUS45 KSLC 011434 AAA
TAFOGD
TAF AMD
KOGD 011434Z 0115/0212 32010KT P6SM SCT100
     FM020400 32006KT P6SM SCT070 BKN100=



000
FTUS45 KSLC 011434 AAB
TAFCDC
TAF AMD
KCDC 011434Z 0115/0212 36011KT P6SM BKN045 BKN120
     FM011700 01008KT P6SM SCT045 BKN120
     FM012100 29008KT P6SM FEW080 SCT200
     FM020200 19007KT P6SM FEW080 SCT200=



000
FTUS45 KSLC 011434 AAA
TAFOGD
TAF AMD
KOGD 011434Z 0115/0212 32010KT P6SM SCT100
     FM020400 32006KT P6SM SCT070 BKN100=



000
FTUS45 KSLC 011434 AAA
TAFBCE
TAF AMD
KBCE 011434Z 0115/0212 29011KT P6SM FEW100
     FM011700 29013G20KT P6SM SCT100 BKN200
     FM020200 27008KT P6SM FEW100 SCT200=



000
FTUS45 KSLC 011434 AAA
TAFBCE
TAF AMD
KBCE 011434Z 0115/0212 29011KT P6SM FEW100
     FM011700 29013G20KT P6SM SCT100 BKN200
     FM020200 27008KT P6SM FEW100 SCT200=



000
FTUS45 KSLC 011434 AAA
TAFOGD
TAF AMD
KOGD 011434Z 0115/0212 32010KT P6SM SCT100
     FM020400 32006KT P6SM SCT070 BKN100=



000
FTUS45 KSLC 011434 AAB
TAFCDC
TAF AMD
KCDC 011434Z 0115/0212 36011KT P6SM BKN045 BKN120
     FM011700 01008KT P6SM SCT045 BKN120
     FM012100 29008KT P6SM FEW080 SCT200
     FM020200 19007KT P6SM FEW080 SCT200=



000
FTUS45 KSLC 011434 AAB
TAFCDC
TAF AMD
KCDC 011434Z 0115/0212 36011KT P6SM BKN045 BKN120
     FM011700 01008KT P6SM SCT045 BKN120
     FM012100 29008KT P6SM FEW080 SCT200
     FM020200 19007KT P6SM FEW080 SCT200=



000
FTUS45 KSLC 011433 AAA
TAFSGU
TAF AMD
KSGU 011433Z 0115/0212 06015G25KT 5SM BR SKC
     FM011500 06007KT P6SM SKC
     FM012000 26010KT P6SM SCT250
     FM020400 12007KT P6SM SCT250
      AMD LTD TO CLD VIS AND WIND=



000
FTUS45 KSLC 011433 AAA
TAFSGU
TAF AMD
KSGU 011433Z 0115/0212 06015G25KT 5SM BR SKC
     FM011500 06007KT P6SM SKC
     FM012000 26010KT P6SM SCT250
     FM020400 12007KT P6SM SCT250
      AMD LTD TO CLD VIS AND WIND=



000
FTUS45 KSLC 011433 AAA
TAFSGU
TAF AMD
KSGU 011433Z 0115/0212 06015G25KT 5SM BR SKC
     FM011500 06007KT P6SM SKC
     FM012000 26010KT P6SM SCT250
     FM020400 12007KT P6SM SCT250
      AMD LTD TO CLD VIS AND WIND=



000
FTUS45 KSLC 011433 AAA
TAFSGU
TAF AMD
KSGU 011433Z 0115/0212 06015G25KT 5SM BR SKC
     FM011500 06007KT P6SM SKC
     FM012000 26010KT P6SM SCT250
     FM020400 12007KT P6SM SCT250
      AMD LTD TO CLD VIS AND WIND=



000
FTUS45 KSLC 011244 AAA
TAFCDC
TAF AMD
KCDC 011244Z 0113/0212 01008KT P6SM SCT035 BKN120
      TEMPO 0113/0115 BKN030
     FM012100 29008KT P6SM FEW080 SCT200
     FM020200 19007KT P6SM FEW080 SCT200=



000
FTUS45 KSLC 011244 AAA
TAFCDC
TAF AMD
KCDC 011244Z 0113/0212 01008KT P6SM SCT035 BKN120
      TEMPO 0113/0115 BKN030
     FM012100 29008KT P6SM FEW080 SCT200
     FM020200 19007KT P6SM FEW080 SCT200=



000
FTUS45 KSLC 011244 AAA
TAFCDC
TAF AMD
KCDC 011244Z 0113/0212 01008KT P6SM SCT035 BKN120
      TEMPO 0113/0115 BKN030
     FM012100 29008KT P6SM FEW080 SCT200
     FM020200 19007KT P6SM FEW080 SCT200=



000
FTUS45 KSLC 011120
TAFENV
TAF
KENV 011120Z 0112/0212 34015G22KT P6SM SCT050
     FM011500 36010KT P6SM FEW050 SCT200
     FM011800 09008KT P6SM SCT090 BKN200
     FM020200 34008KT P6SM SCT080 BKN150
     FM020500 34014G21KT P6SM SCT070 BKN120
      AMD LTD TO CLD VIS AND WIND=



000
FTUS45 KSLC 011120
TAFOGD
TAF
KOGD 011120Z 0112/0212 32016G23KT P6SM SCT100
     FM011500 32010KT P6SM SCT100
     FM020400 32006KT P6SM SCT070 BKN100=



000
FTUS45 KSLC 011120
TAFBCE
TAF
KBCE 011120Z 0112/0212 24006KT P6SM FEW100
     FM011700 29013G20KT P6SM SCT100 BKN200
     FM020200 27008KT P6SM FEW100 SCT200=



000
FTUS45 KSLC 011120
TAFLGU
TAF
KLGU 011120Z 0112/0212 34010KT P6SM SCT100=



000
FTUS45 KSLC 011120
TAFBCE
TAF
KBCE 011120Z 0112/0212 24006KT P6SM FEW100
     FM011700 29013G20KT P6SM SCT100 BKN200
     FM020200 27008KT P6SM FEW100 SCT200=



000
FTUS45 KSLC 011120
TAFENV
TAF
KENV 011120Z 0112/0212 34015G22KT P6SM SCT050
     FM011500 36010KT P6SM FEW050 SCT200
     FM011800 09008KT P6SM SCT090 BKN200
     FM020200 34008KT P6SM SCT080 BKN150
     FM020500 34014G21KT P6SM SCT070 BKN120
      AMD LTD TO CLD VIS AND WIND=



000
FTUS45 KSLC 011120
TAFSGU
TAF
KSGU 011120Z 0112/0212 VRB05KT P6SM SKC
     FM012000 26010KT P6SM SCT250
     FM020400 12007KT P6SM SCT250
      AMD LTD TO CLD VIS AND WIND=



000
FTUS45 KSLC 011120
TAFOGD
TAF
KOGD 011120Z 0112/0212 32016G23KT P6SM SCT100
     FM011500 32010KT P6SM SCT100
     FM020400 32006KT P6SM SCT070 BKN100=



000
FTUS45 KSLC 011120
TAFENV
TAF
KENV 011120Z 0112/0212 34015G22KT P6SM SCT050
     FM011500 36010KT P6SM FEW050 SCT200
     FM011800 09008KT P6SM SCT090 BKN200
     FM020200 34008KT P6SM SCT080 BKN150
     FM020500 34014G21KT P6SM SCT070 BKN120
      AMD LTD TO CLD VIS AND WIND=



000
FTUS45 KSLC 011120
TAFCDC
TAF
KCDC 011120Z 0112/0212 01008KT P6SM SCT080
     FM012100 29008KT P6SM FEW080 SCT200
     FM020200 19007KT P6SM FEW080 SCT200=



000
FTUS45 KSLC 011120
TAFLGU
TAF
KLGU 011120Z 0112/0212 34010KT P6SM SCT100=



000
FTUS45 KSLC 011120
TAFPVU
TAF
KPVU 011120Z 0112/0212 32021G30KT P6SM SCT080 BKN120
     FM011600 31012G19KT P6SM FEW080 SCT120
     FM020000 30009KT P6SM SCT070 SCT110
     FM020500 33010G15KT P6SM SCT070 BKN110
      AMD LTD TO CLD VIS AND WIND=



000
FTUS45 KSLC 011120
TAFCDC
TAF
KCDC 011120Z 0112/0212 01008KT P6SM SCT080
     FM012100 29008KT P6SM FEW080 SCT200
     FM020200 19007KT P6SM FEW080 SCT200=



000
FTUS45 KSLC 011120
TAFSGU
TAF
KSGU 011120Z 0112/0212 VRB05KT P6SM SKC
     FM012000 26010KT P6SM SCT250
     FM020400 12007KT P6SM SCT250
      AMD LTD TO CLD VIS AND WIND=



000
FTUS45 KSLC 011120
TAFCDC
TAF
KCDC 011120Z 0112/0212 01008KT P6SM SCT080
     FM012100 29008KT P6SM FEW080 SCT200
     FM020200 19007KT P6SM FEW080 SCT200=



000
FTUS45 KSLC 011120
TAFPVU
TAF
KPVU 011120Z 0112/0212 32021G30KT P6SM SCT080 BKN120
     FM011600 31012G19KT P6SM FEW080 SCT120
     FM020000 30009KT P6SM SCT070 SCT110
     FM020500 33010G15KT P6SM SCT070 BKN110
      AMD LTD TO CLD VIS AND WIND=



000
FTUS45 KSLC 011120
TAFSLC
TAF
KSLC 011120Z 0112/0218 34011KT P6SM FEW050 SCT100
     FM020400 33006KT P6SM SCT070 BKN100=



000
FTUS45 KSLC 011120
TAFSLC
TAF
KSLC 011120Z 0112/0218 34011KT P6SM FEW050 SCT100
     FM020400 33006KT P6SM SCT070 BKN100=



000
FTUS45 KSLC 011120
TAFSLC
TAF
KSLC 011120Z 0112/0218 34011KT P6SM FEW050 SCT100
     FM020400 33006KT P6SM SCT070 BKN100=



000
FTUS45 KSLC 011120
TAFSLC
TAF
KSLC 011120Z 0112/0218 34011KT P6SM FEW050 SCT100
     FM020400 33006KT P6SM SCT070 BKN100=



000
FTUS45 KSLC 011120
TAFLGU
TAF
KLGU 011120Z 0112/0212 34010KT P6SM SCT100=



000
FTUS45 KSLC 011120
TAFOGD
TAF
KOGD 011120Z 0112/0212 32016G23KT P6SM SCT100
     FM011500 32010KT P6SM SCT100
     FM020400 32006KT P6SM SCT070 BKN100=



000
FTUS45 KSLC 011120
TAFENV
TAF
KENV 011120Z 0112/0212 34015G22KT P6SM SCT050
     FM011500 36010KT P6SM FEW050 SCT200
     FM011800 09008KT P6SM SCT090 BKN200
     FM020200 34008KT P6SM SCT080 BKN150
     FM020500 34014G21KT P6SM SCT070 BKN120
      AMD LTD TO CLD VIS AND WIND=



000
FTUS45 KSLC 011120
TAFLGU
TAF
KLGU 011120Z 0112/0212 34010KT P6SM SCT100=



000
FTUS45 KSLC 011120
TAFBCE
TAF
KBCE 011120Z 0112/0212 24006KT P6SM FEW100
     FM011700 29013G20KT P6SM SCT100 BKN200
     FM020200 27008KT P6SM FEW100 SCT200=



000
FTUS45 KSLC 011120
TAFOGD
TAF
KOGD 011120Z 0112/0212 32016G23KT P6SM SCT100
     FM011500 32010KT P6SM SCT100
     FM020400 32006KT P6SM SCT070 BKN100=



000
FTUS45 KSLC 011120
TAFSGU
TAF
KSGU 011120Z 0112/0212 VRB05KT P6SM SKC
     FM012000 26010KT P6SM SCT250
     FM020400 12007KT P6SM SCT250
      AMD LTD TO CLD VIS AND WIND=



000
FTUS45 KSLC 011120
TAFSGU
TAF
KSGU 011120Z 0112/0212 VRB05KT P6SM SKC
     FM012000 26010KT P6SM SCT250
     FM020400 12007KT P6SM SCT250
      AMD LTD TO CLD VIS AND WIND=



000
FTUS45 KSLC 011120
TAFPVU
TAF
KPVU 011120Z 0112/0212 32021G30KT P6SM SCT080 BKN120
     FM011600 31012G19KT P6SM FEW080 SCT120
     FM020000 30009KT P6SM SCT070 SCT110
     FM020500 33010G15KT P6SM SCT070 BKN110
      AMD LTD TO CLD VIS AND WIND=



000
FTUS45 KSLC 011030 AAA
TAFCDC
TAF AMD
KCDC 011030Z 0111/0206 01008KT P6SM FEW080=



000
FTUS45 KSLC 011030 AAA
TAFCDC
TAF AMD
KCDC 011030Z 0111/0206 01008KT P6SM FEW080=



000
FTUS45 KSLC 010906 AAB
TAFSLC
TAF AMD
KSLC 010906Z 0109/0212 34015KT P6SM SCT050 SCT100
     FM011200 33009KT P6SM SCT100=



000
FTUS45 KSLC 010906 AAB
TAFSLC
TAF AMD
KSLC 010906Z 0109/0212 34015KT P6SM SCT050 SCT100
     FM011200 33009KT P6SM SCT100=



000
FTUS45 KSLC 010840 AAA
TAFPVU
TAF AMD
KPVU 010840Z 0109/0206 32025G35KT P6SM SCT080 BKN120
     FM011200 31012G19KT P6SM FEW080 SCT120
     FM020200 30007KT P6SM SCT070 BKN110
      AMD LTD TO CLD VIS AND WIND=



000
FTUS45 KSLC 010840 AAA
TAFPVU
TAF AMD
KPVU 010840Z 0109/0206 32025G35KT P6SM SCT080 BKN120
     FM011200 31012G19KT P6SM FEW080 SCT120
     FM020200 30007KT P6SM SCT070 BKN110
      AMD LTD TO CLD VIS AND WIND=



000
FTUS45 KSLC 010840 AAA
TAFPVU
TAF AMD
KPVU 010840Z 0109/0206 32025G35KT P6SM SCT080 BKN120
     FM011200 31012G19KT P6SM FEW080 SCT120
     FM020200 30007KT P6SM SCT070 BKN110
      AMD LTD TO CLD VIS AND WIND=



000
FTUS45 KSLC 010840 AAA
TAFPVU
TAF AMD
KPVU 010840Z 0109/0206 32025G35KT P6SM SCT080 BKN120
     FM011200 31012G19KT P6SM FEW080 SCT120
     FM020200 30007KT P6SM SCT070 BKN110
      AMD LTD TO CLD VIS AND WIND=



000
FTUS45 KSLC 010839 AAA
TAFOGD
TAF AMD
KOGD 010839Z 0109/0206 32016G23KT P6SM SCT100
     FM011100 32010KT P6SM SCT100=



000
FTUS45 KSLC 010839 AAA
TAFOGD
TAF AMD
KOGD 010839Z 0109/0206 32016G23KT P6SM SCT100
     FM011100 32010KT P6SM SCT100=



000
FTUS45 KSLC 010839 AAA
TAFOGD
TAF AMD
KOGD 010839Z 0109/0206 32016G23KT P6SM SCT100
     FM011100 32010KT P6SM SCT100=



000
FTUS45 KSLC 010839 AAA
TAFOGD
TAF AMD
KOGD 010839Z 0109/0206 32016G23KT P6SM SCT100
     FM011100 32010KT P6SM SCT100=



000
FTUS45 KSLC 010837 AAA
TAFENV
TAF AMD
KENV 010837Z 0109/0206 01015G22KT P6SM FEW040
     FM011200 36010KT P6SM FEW040 SCT200
     FM011700 09008KT P6SM SCT090 BKN200
     FM020200 34008KT P6SM SCT080 BKN150
      AMD LTD TO CLD VIS AND WIND=



000
FTUS45 KSLC 010837 AAA
TAFENV
TAF AMD
KENV 010837Z 0109/0206 01015G22KT P6SM FEW040
     FM011200 36010KT P6SM FEW040 SCT200
     FM011700 09008KT P6SM SCT090 BKN200
     FM020200 34008KT P6SM SCT080 BKN150
      AMD LTD TO CLD VIS AND WIND=



000
FTUS45 KSLC 010837 AAA
TAFENV
TAF AMD
KENV 010837Z 0109/0206 01015G22KT P6SM FEW040
     FM011200 36010KT P6SM FEW040 SCT200
     FM011700 09008KT P6SM SCT090 BKN200
     FM020200 34008KT P6SM SCT080 BKN150
      AMD LTD TO CLD VIS AND WIND=



000
FTUS45 KSLC 010837 AAA
TAFENV
TAF AMD
KENV 010837Z 0109/0206 01015G22KT P6SM FEW040
     FM011200 36010KT P6SM FEW040 SCT200
     FM011700 09008KT P6SM SCT090 BKN200
     FM020200 34008KT P6SM SCT080 BKN150
      AMD LTD TO CLD VIS AND WIND=



000
FTUS45 KSLC 010707 AAA
TAFLGU
TAF AMD
KLGU 010707Z 0107/0206 34010KT P6SM SCT100
      TEMPO 0107/0109 36017G26KT=



000
FTUS45 KSLC 010707 AAA
TAFLGU
TAF AMD
KLGU 010707Z 0107/0206 34010KT P6SM SCT100
      TEMPO 0107/0109 36017G26KT=



000
FTUS45 KSLC 010707 AAA
TAFLGU
TAF AMD
KLGU 010707Z 0107/0206 34010KT P6SM SCT100
      TEMPO 0107/0109 36017G26KT=



000
FTUS45 KSLC 010707 AAA
TAFLGU
TAF AMD
KLGU 010707Z 0107/0206 34010KT P6SM SCT100
      TEMPO 0107/0109 36017G26KT=



000
FTUS45 KSLC 010540
TAFOGD
TAF
KOGD 010540Z 0106/0206 31010KT P6SM SCT100
      TEMPO 0106/0108 32016G23KT BKN100=



000
FTUS45 KSLC 010540
TAFLGU
TAF
KLGU 010540Z 0106/0206 34010KT P6SM SCT100
      TEMPO 0106/0107 36017G26KT=



000
FTUS45 KSLC 010540
TAFCDC
TAF
KCDC 010540Z 0106/0206 19007KT P6SM FEW200
     FM011200 01008KT P6SM FEW080=



000
FTUS45 KSLC 010540
TAFENV
TAF
KENV 010540Z 0106/0206 32015G22KT P6SM FEW040
     FM011000 34010KT P6SM FEW040 SCT200
     FM011700 09008KT P6SM SCT090 BKN200
     FM020200 34008KT P6SM SCT080 BKN150
      AMD LTD TO CLD VIS AND WIND=



000
FTUS45 KSLC 010540
TAFOGD
TAF
KOGD 010540Z 0106/0206 31010KT P6SM SCT100
      TEMPO 0106/0108 32016G23KT BKN100=



000
FTUS45 KSLC 010540
TAFSGU
TAF
KSGU 010540Z 0106/0206 VRB05KT P6SM SKC
     FM011200 03008KT P6SM SKC
     FM012000 26010KT P6SM SKC
      AMD LTD TO CLD VIS AND WIND=



000
FTUS45 KSLC 010540
TAFSLC
TAF
KSLC 010540Z 0106/0212 32010KT P6SM SCT070 BKN100
      TEMPO 0106/0109 34018G28KT
     FM011000 32008KT P6SM SCT100=



000
FTUS45 KSLC 010540
TAFBCE
TAF
KBCE 010540Z 0106/0206 24009KT P6SM FEW100
     FM011200 28010KT P6SM SKC
     FM011700 30014G24KT P6SM SCT100=



000
FTUS45 KSLC 010540
TAFBCE
TAF
KBCE 010540Z 0106/0206 24009KT P6SM FEW100
     FM011200 28010KT P6SM SKC
     FM011700 30014G24KT P6SM SCT100=



000
FTUS45 KSLC 010540
TAFLGU
TAF
KLGU 010540Z 0106/0206 34010KT P6SM SCT100
      TEMPO 0106/0107 36017G26KT=



000
FTUS45 KSLC 010540
TAFCDC
TAF
KCDC 010540Z 0106/0206 19007KT P6SM FEW200
     FM011200 01008KT P6SM FEW080=



000
FTUS45 KSLC 010540
TAFLGU
TAF
KLGU 010540Z 0106/0206 34010KT P6SM SCT100
      TEMPO 0106/0107 36017G26KT=



000
FTUS45 KSLC 010540
TAFSGU
TAF
KSGU 010540Z 0106/0206 VRB05KT P6SM SKC
     FM011200 03008KT P6SM SKC
     FM012000 26010KT P6SM SKC
      AMD LTD TO CLD VIS AND WIND=



000
FTUS45 KSLC 010540
TAFOGD
TAF
KOGD 010540Z 0106/0206 31010KT P6SM SCT100
      TEMPO 0106/0108 32016G23KT BKN100=



000
FTUS45 KSLC 010540
TAFBCE
TAF
KBCE 010540Z 0106/0206 24009KT P6SM FEW100
     FM011200 28010KT P6SM SKC
     FM011700 30014G24KT P6SM SCT100=



000
FTUS45 KSLC 010540
TAFCDC
TAF
KCDC 010540Z 0106/0206 19007KT P6SM FEW200
     FM011200 01008KT P6SM FEW080=



000
FTUS45 KSLC 010540
TAFOGD
TAF
KOGD 010540Z 0106/0206 31010KT P6SM SCT100
      TEMPO 0106/0108 32016G23KT BKN100=



000
FTUS45 KSLC 010540
TAFENV
TAF
KENV 010540Z 0106/0206 32015G22KT P6SM FEW040
     FM011000 34010KT P6SM FEW040 SCT200
     FM011700 09008KT P6SM SCT090 BKN200
     FM020200 34008KT P6SM SCT080 BKN150
      AMD LTD TO CLD VIS AND WIND=



000
FTUS45 KSLC 010540
TAFENV
TAF
KENV 010540Z 0106/0206 32015G22KT P6SM FEW040
     FM011000 34010KT P6SM FEW040 SCT200
     FM011700 09008KT P6SM SCT090 BKN200
     FM020200 34008KT P6SM SCT080 BKN150
      AMD LTD TO CLD VIS AND WIND=



000
FTUS45 KSLC 010540
TAFSGU
TAF
KSGU 010540Z 0106/0206 VRB05KT P6SM SKC
     FM011200 03008KT P6SM SKC
     FM012000 26010KT P6SM SKC
      AMD LTD TO CLD VIS AND WIND=



000
FTUS45 KSLC 010540
TAFSLC
TAF
KSLC 010540Z 0106/0212 32010KT P6SM SCT070 BKN100
      TEMPO 0106/0109 34018G28KT
     FM011000 32008KT P6SM SCT100=



000
FTUS45 KSLC 010540
TAFPVU
TAF
KPVU 010540Z 0106/0206 22007KT P6SM SCT080 BKN120
     FM010700 32015G24KT P6SM SCT080 BKN120
     FM011200 31011G18KT P6SM FEW080 SCT120
     FM020200 30007KT P6SM SCT070 BKN110
      AMD LTD TO CLD VIS AND WIND=



000
FTUS45 KSLC 010540
TAFSLC
TAF
KSLC 010540Z 0106/0212 32010KT P6SM SCT070 BKN100
      TEMPO 0106/0109 34018G28KT
     FM011000 32008KT P6SM SCT100=



000
FTUS45 KSLC 010540
TAFLGU
TAF
KLGU 010540Z 0106/0206 34010KT P6SM SCT100
      TEMPO 0106/0107 36017G26KT=



000
FTUS45 KSLC 010540
TAFENV
TAF
KENV 010540Z 0106/0206 32015G22KT P6SM FEW040
     FM011000 34010KT P6SM FEW040 SCT200
     FM011700 09008KT P6SM SCT090 BKN200
     FM020200 34008KT P6SM SCT080 BKN150
      AMD LTD TO CLD VIS AND WIND=



000
FTUS45 KSLC 010540
TAFPVU
TAF
KPVU 010540Z 0106/0206 22007KT P6SM SCT080 BKN120
     FM010700 32015G24KT P6SM SCT080 BKN120
     FM011200 31011G18KT P6SM FEW080 SCT120
     FM020200 30007KT P6SM SCT070 BKN110
      AMD LTD TO CLD VIS AND WIND=



000
FTUS45 KSLC 010540
TAFCDC
TAF
KCDC 010540Z 0106/0206 19007KT P6SM FEW200
     FM011200 01008KT P6SM FEW080=



000
FTUS45 KSLC 010540
TAFSLC
TAF
KSLC 010540Z 0106/0212 32010KT P6SM SCT070 BKN100
      TEMPO 0106/0109 34018G28KT
     FM011000 32008KT P6SM SCT100=



000
FTUS45 KSLC 010540
TAFBCE
TAF
KBCE 010540Z 0106/0206 24009KT P6SM FEW100
     FM011200 28010KT P6SM SKC
     FM011700 30014G24KT P6SM SCT100=



000
FTUS45 KSLC 010540
TAFPVU
TAF
KPVU 010540Z 0106/0206 22007KT P6SM SCT080 BKN120
     FM010700 32015G24KT P6SM SCT080 BKN120
     FM011200 31011G18KT P6SM FEW080 SCT120
     FM020200 30007KT P6SM SCT070 BKN110
      AMD LTD TO CLD VIS AND WIND=



000
FTUS45 KSLC 010540
TAFPVU
TAF
KPVU 010540Z 0106/0206 22007KT P6SM SCT080 BKN120
     FM010700 32015G24KT P6SM SCT080 BKN120
     FM011200 31011G18KT P6SM FEW080 SCT120
     FM020200 30007KT P6SM SCT070 BKN110
      AMD LTD TO CLD VIS AND WIND=



000
FTUS45 KSLC 010540
TAFSGU
TAF
KSGU 010540Z 0106/0206 VRB05KT P6SM SKC
     FM011200 03008KT P6SM SKC
     FM012000 26010KT P6SM SKC
      AMD LTD TO CLD VIS AND WIND=



000
FTUS45 KSLC 010526 AAF
TAFLGU
TAF AMD
KLGU 010526Z 0105/0124 34010KT P6SM SCT100
      TEMPO 0105/0107 01030G40KT=



000
FTUS45 KSLC 010526 AAF
TAFLGU
TAF AMD
KLGU 010526Z 0105/0124 34010KT P6SM SCT100
      TEMPO 0105/0107 01030G40KT=



000
FTUS45 KSLC 010526 AAF
TAFLGU
TAF AMD
KLGU 010526Z 0105/0124 34010KT P6SM SCT100
      TEMPO 0105/0107 01030G40KT=



000
FTUS45 KSLC 010526 AAF
TAFLGU
TAF AMD
KLGU 010526Z 0105/0124 34010KT P6SM SCT100
      TEMPO 0105/0107 01030G40KT=



000
FTUS45 KSLC 010417 AAC
TAFPVU
TAF AMD
KPVU 010417Z 0104/0124 29010KT P6SM SCT110
      TEMPO 0104/0105 18020G35KT
     FM011500 31011G18KT P6SM SCT100
      AMD LTD TO CLD VIS AND WIND=



000
FTUS45 KSLC 010417 AAC
TAFPVU
TAF AMD
KPVU 010417Z 0104/0124 29010KT P6SM SCT110
      TEMPO 0104/0105 18020G35KT
     FM011500 31011G18KT P6SM SCT100
      AMD LTD TO CLD VIS AND WIND=



000
FTUS45 KSLC 010417 AAC
TAFPVU
TAF AMD
KPVU 010417Z 0104/0124 29010KT P6SM SCT110
      TEMPO 0104/0105 18020G35KT
     FM011500 31011G18KT P6SM SCT100
      AMD LTD TO CLD VIS AND WIND=



000
FTUS45 KSLC 010417 AAC
TAFPVU
TAF AMD
KPVU 010417Z 0104/0124 29010KT P6SM SCT110
      TEMPO 0104/0105 18020G35KT
     FM011500 31011G18KT P6SM SCT100
      AMD LTD TO CLD VIS AND WIND=



000
FTUS45 KSLC 010324 AAB
TAFSGU
TAF AMD
KSGU 010324Z 0103/0124 20011KT P6SM SKC
     FM010600 VRB05KT P6SM SKC
     FM011100 03008KT P6SM SKC
     FM012000 26010KT P6SM SKC
      AMD LTD TO CLD VIS AND WIND=



000
FTUS45 KSLC 010324 AAB
TAFSGU
TAF AMD
KSGU 010324Z 0103/0124 20011KT P6SM SKC
     FM010600 VRB05KT P6SM SKC
     FM011100 03008KT P6SM SKC
     FM012000 26010KT P6SM SKC
      AMD LTD TO CLD VIS AND WIND=



000
FTUS45 KSLC 010323 AAB
TAFPVU
TAF AMD
KPVU 010323Z 0103/0124 29010KT P6SM SCT110
      TEMPO 0103/0105 28020G35KT
     FM011500 31011G18KT P6SM SCT100
      AMD LTD TO CLD VIS AND WIND=



000
FTUS45 KSLC 010323 AAB
TAFPVU
TAF AMD
KPVU 010323Z 0103/0124 29010KT P6SM SCT110
      TEMPO 0103/0105 28020G35KT
     FM011500 31011G18KT P6SM SCT100
      AMD LTD TO CLD VIS AND WIND=



000
FTUS45 KSLC 010323 AAE
TAFLGU
TAF AMD
KLGU 010323Z 0103/0124 34008KT P6SM SCT100
      TEMPO 0103/0105 15011KT BKN100
     FM011500 32010KT P6SM SCT100=



000
FTUS45 KSLC 010323 AAE
TAFLGU
TAF AMD
KLGU 010323Z 0103/0124 34008KT P6SM SCT100
      TEMPO 0103/0105 15011KT BKN100
     FM011500 32010KT P6SM SCT100=



000
FTUS45 KSLC 010322 AAC
TAFOGD
TAF AMD
KOGD 010322Z 0103/0124 31007KT P6SM SCT100
      TEMPO 0103/0105 16010G15KT BKN100
     FM011700 29010KT P6SM SCT100=



000
FTUS45 KSLC 010322 AAC
TAFOGD
TAF AMD
KOGD 010322Z 0103/0124 31007KT P6SM SCT100
      TEMPO 0103/0105 16010G15KT BKN100
     FM011700 29010KT P6SM SCT100=



000
FTUS45 KSLC 010322 AAC
TAFOGD
TAF AMD
KOGD 010322Z 0103/0124 31007KT P6SM SCT100
      TEMPO 0103/0105 16010G15KT BKN100
     FM011700 29010KT P6SM SCT100=



000
FTUS45 KSLC 010306 AAC
TAFSLC
TAF AMD
KSLC 010306Z 0103/0206 32010KT P6SM BKN100 BKN150
      TEMPO 0103/0104 33015G25KT P6SM BKN100
     FM010600 33011G18KT P6SM SCT100
     FM010900 32008KT P6SM SKC
     FM020200 35007KT P6SM FEW100=



000
FTUS45 KSLC 010306 AAC
TAFSLC
TAF AMD
KSLC 010306Z 0103/0206 32010KT P6SM BKN100 BKN150
      TEMPO 0103/0104 33015G25KT P6SM BKN100
     FM010600 33011G18KT P6SM SCT100
     FM010900 32008KT P6SM SKC
     FM020200 35007KT P6SM FEW100=



000
FTUS45 KSLC 010251 AAD
TAFLGU
TAF AMD
KLGU 010251Z 0103/0124 34008G15KT P6SM BKN100
     FM010600 34008KT P6SM SKC
     FM011500 32010KT P6SM SCT100=



000
FTUS45 KSLC 010251 AAD
TAFLGU
TAF AMD
KLGU 010251Z 0103/0124 34008G15KT P6SM BKN100
     FM010600 34008KT P6SM SKC
     FM011500 32010KT P6SM SCT100=



000
FTUS45 KSLC 010251 AAD
TAFLGU
TAF AMD
KLGU 010251Z 0103/0124 34008G15KT P6SM BKN100
     FM010600 34008KT P6SM SKC
     FM011500 32010KT P6SM SCT100=



000
FTUS45 KSLC 010251 AAD
TAFLGU
TAF AMD
KLGU 010251Z 0103/0124 34008G15KT P6SM BKN100
     FM010600 34008KT P6SM SKC
     FM011500 32010KT P6SM SCT100=



000
FTUS45 KSLC 010227 AAA
TAFPVU
TAF AMD
KPVU 010227Z 0102/0124 16008KT P6SM BKN110 BKN150
     FM010500 29010KT P6SM SCT110
     FM011500 31011G18KT P6SM SCT100
      AMD LTD TO CLD VIS AND WIND=



000
FTUS45 KSLC 010227 AAA
TAFPVU
TAF AMD
KPVU 010227Z 0102/0124 16008KT P6SM BKN110 BKN150
     FM010500 29010KT P6SM SCT110
     FM011500 31011G18KT P6SM SCT100
      AMD LTD TO CLD VIS AND WIND=



000
FTUS45 KSLC 010224 AAB
TAFOGD
TAF AMD
KOGD 010224Z 0102/0124 32010KT P6SM SCT100 BKN150
     FM010400 31007KT P6SM FEW100
     FM011700 29010KT P6SM SCT100=



000
FTUS45 KSLC 010224 AAB
TAFOGD
TAF AMD
KOGD 010224Z 0102/0124 32010KT P6SM SCT100 BKN150
     FM010400 31007KT P6SM FEW100
     FM011700 29010KT P6SM SCT100=



000
FTUS45 KSLC 010224 AAB
TAFOGD
TAF AMD
KOGD 010224Z 0102/0124 32010KT P6SM SCT100 BKN150
     FM010400 31007KT P6SM FEW100
     FM011700 29010KT P6SM SCT100=



000
FTUS45 KSLC 010224 AAB
TAFOGD
TAF AMD
KOGD 010224Z 0102/0124 32010KT P6SM SCT100 BKN150
     FM010400 31007KT P6SM FEW100
     FM011700 29010KT P6SM SCT100=



000
FTUS45 KSLC 010222 AAD
TAFSLC
TAF AMD
KSLC 010222Z 0102/0206 29015G24KT P6SM SCT100 BKN150
     FM010600 33009KT P6SM SCT150
     FM011500 32010KT P6SM SKC
     FM020200 35007KT P6SM FEW100=



000
FTUS45 KSLC 010153 AAC
TAFLGU
TAF AMD
KLGU 010153Z 0102/0124 30011G26KT P6SM BKN100
     FM010300 30013G20KT P6SM SCT100
     FM010600 34008KT P6SM SKC
     FM011500 32010KT P6SM SCT100=



000
FTUS45 KSLC 010153 AAC
TAFLGU
TAF AMD
KLGU 010153Z 0102/0124 30011G26KT P6SM BKN100
     FM010300 30013G20KT P6SM SCT100
     FM010600 34008KT P6SM SKC
     FM011500 32010KT P6SM SCT100=



000
FTUS45 KSLC 010153 AAC
TAFLGU
TAF AMD
KLGU 010153Z 0102/0124 30011G26KT P6SM BKN100
     FM010300 30013G20KT P6SM SCT100
     FM010600 34008KT P6SM SKC
     FM011500 32010KT P6SM SCT100=



000
FTUS45 KSLC 010148 AAA
TAFSGU
TAF AMD
KSGU 010148Z 0102/0124 20011KT P6SM SKC
     FM010300 VRB05KT P6SM SKC
     FM011100 03008KT P6SM SKC
     FM012000 26010KT P6SM SKC
      AMD LTD TO CLD VIS AND WIND=



000
FTUS45 KSLC 010147 AAA
TAFCDC
TAF AMD
KCDC 010147Z 0102/0124 19011KT P6SM FEW200
     FM010700 VRB05KT P6SM SCT150
     FM011200 01008KT P6SM FEW080=



000
FTUS45 KSLC 010137 AAB
TAFLGU
TAF AMD
KLGU 010137Z 0102/0124 25011G20KT P6SM BKN100
     FM010400 30013G20KT P6SM SCT100
     FM010600 34008KT P6SM SKC
     FM011500 32010KT P6SM SCT100=



000
FTUS45 KSLC 010134 AAA
TAFENV
TAF AMD
KENV 010134Z 0102/0124 29022G30KT P6SM FEW100
     FM010600 32012G19KT P6SM SKC
     FM011700 06008KT P6SM SKC
      AMD LTD TO CLD VIS AND WIND=



000
FTUS45 KSLC 010134 AAA
TAFENV
TAF AMD
KENV 010134Z 0102/0124 29022G30KT P6SM FEW100
     FM010600 32012G19KT P6SM SKC
     FM011700 06008KT P6SM SKC
      AMD LTD TO CLD VIS AND WIND=



000
FTUS45 KSLC 010134 AAA
TAFENV
TAF AMD
KENV 010134Z 0102/0124 29022G30KT P6SM FEW100
     FM010600 32012G19KT P6SM SKC
     FM011700 06008KT P6SM SKC
      AMD LTD TO CLD VIS AND WIND=



000
FTUS45 KSLC 010134 AAA
TAFENV
TAF AMD
KENV 010134Z 0102/0124 29022G30KT P6SM FEW100
     FM010600 32012G19KT P6SM SKC
     FM011700 06008KT P6SM SKC
      AMD LTD TO CLD VIS AND WIND=



000
FTUS45 KSLC 010044 AAA
TAFOGD
TAF AMD
KOGD 010044Z 0101/0124 22010KT P6SM BKN150
     FM010050 29014G21KT P6SM SCT070 BKN100
     FM010400 31007KT P6SM BKN100
     FM011700 29010KT P6SM SCT100=



000
FTUS45 KSLC 010044 AAA
TAFOGD
TAF AMD
KOGD 010044Z 0101/0124 22010KT P6SM BKN150
     FM010050 29014G21KT P6SM SCT070 BKN100
     FM010400 31007KT P6SM BKN100
     FM011700 29010KT P6SM SCT100=



000
FTUS45 KSLC 010043 AAB
TAFSLC
TAF AMD
KSLC 010043Z 0101/0206 19018G26KT P6SM SCT110 BKN150
     FM010130 31018G34KT P6SM SCT070 BKN100
     FM010300 29015G22KT P6SM SCT070 BKN100
     FM010500 33009KT P6SM SCT060 BKN100
     FM011500 32010KT P6SM SCT100
     FM020200 35007KT P6SM FEW100=



000
FTUS45 KSLC 010043 AAB
TAFSLC
TAF AMD
KSLC 010043Z 0101/0206 19018G26KT P6SM SCT110 BKN150
     FM010130 31018G34KT P6SM SCT070 BKN100
     FM010300 29015G22KT P6SM SCT070 BKN100
     FM010500 33009KT P6SM SCT060 BKN100
     FM011500 32010KT P6SM SCT100
     FM020200 35007KT P6SM FEW100=



000
FTUS45 KSLC 010035 AAA
TAFLGU
TAF AMD
KLGU 010035Z 0101/0124 21018G28KT P6SM SCT100 BKN200
     FM010100 25018G28KT P6SM BKN100
     FM010200 30013G20KT P6SM SCT050 BKN080
     FM010600 34008KT P6SM SCT050 SCT100
     FM011500 32010KT P6SM SCT100=



000
FTUS45 KSLC 010035 AAA
TAFLGU
TAF AMD
KLGU 010035Z 0101/0124 21018G28KT P6SM SCT100 BKN200
     FM010100 25018G28KT P6SM BKN100
     FM010200 30013G20KT P6SM SCT050 BKN080
     FM010600 34008KT P6SM SCT050 SCT100
     FM011500 32010KT P6SM SCT100=



000
FTUS45 KSLC 312338
TAFLGU
TAF
KLGU 312338Z 0100/0124 21011KT P6SM SCT120 BKN200
     FM010200 30013G20KT P6SM SCT050 BKN100
     FM010600 34008KT P6SM SCT050 SCT100
     FM011500 32010KT P6SM SCT100=



000
FTUS45 KSLC 312338
TAFOGD
TAF
KOGD 312338Z 0100/0124 22010KT P6SM BKN150
     FM010200 29014G21KT P6SM SCT070 BKN100
     FM010500 31007KT P6SM BKN100
     FM011700 29010KT P6SM SCT100=



000
FTUS45 KSLC 312338
TAFSLC
TAF
KSLC 312338Z 0100/0206 20018G26KT P6SM SCT110 BKN150
     FM010200 32018G28KT P6SM SCT070 BKN100
     FM010500 33009KT P6SM SCT060 BKN100
     FM011500 32010KT P6SM SCT100
     FM020200 35007KT P6SM FEW100=



000
FTUS45 KSLC 312338
TAFENV
TAF
KENV 312338Z 0100/0124 24025G35KT P6SM SCT060 BKN100
     FM010200 28022G30KT P6SM FEW080 BKN100
     FM010600 32012G19KT P6SM SCT100
     FM011700 06008KT P6SM SKC
      AMD LTD TO CLD VIS AND WIND=



000
FTUS45 KSLC 312338
TAFOGD
TAF
KOGD 312338Z 0100/0124 22010KT P6SM BKN150
     FM010200 29014G21KT P6SM SCT070 BKN100
     FM010500 31007KT P6SM BKN100
     FM011700 29010KT P6SM SCT100=



000
FTUS45 KSLC 312338
TAFBCE
TAF
KBCE 312338Z 0100/0124 22016G25KT P6SM SCT100 BKN150
     FM010200 24009KT P6SM FEW100
     FM011200 28010KT P6SM SKC
     FM011700 30014G24KT P6SM SCT100=



000
FTUS45 KSLC 312338
TAFSLC
TAF
KSLC 312338Z 0100/0206 20018G26KT P6SM SCT110 BKN150
     FM010200 32018G28KT P6SM SCT070 BKN100
     FM010500 33009KT P6SM SCT060 BKN100
     FM011500 32010KT P6SM SCT100
     FM020200 35007KT P6SM FEW100=



000
FTUS45 KSLC 312338
TAFSGU
TAF
KSGU 312338Z 0100/0124 24010KT P6SM FEW200
     FM010200 VRB05KT P6SM SKC
     FM011100 03008KT P6SM SKC
     FM012000 26010KT P6SM SKC
      AMD LTD TO CLD VIS AND WIND=



000
FTUS45 KSLC 312338
TAFENV
TAF
KENV 312338Z 0100/0124 24025G35KT P6SM SCT060 BKN100
     FM010200 28022G30KT P6SM FEW080 BKN100
     FM010600 32012G19KT P6SM SCT100
     FM011700 06008KT P6SM SKC
      AMD LTD TO CLD VIS AND WIND=



000
FTUS45 KSLC 312338
TAFSGU
TAF
KSGU 312338Z 0100/0124 24010KT P6SM FEW200
     FM010200 VRB05KT P6SM SKC
     FM011100 03008KT P6SM SKC
     FM012000 26010KT P6SM SKC
      AMD LTD TO CLD VIS AND WIND=



000
FTUS45 KSLC 312338
TAFCDC
TAF
KCDC 312338Z 0100/0124 20020G30KT P6SM FEW200
     FM010200 19011KT P6SM FEW200
     FM010700 VRB05KT P6SM SCT150
     FM011200 01008KT P6SM FEW080=



000
FTUS45 KSLC 312338
TAFSLC
TAF
KSLC 312338Z 0100/0206 20018G26KT P6SM SCT110 BKN150
     FM010200 32018G28KT P6SM SCT070 BKN100
     FM010500 33009KT P6SM SCT060 BKN100
     FM011500 32010KT P6SM SCT100
     FM020200 35007KT P6SM FEW100=



000
FTUS45 KSLC 312338
TAFOGD
TAF
KOGD 312338Z 0100/0124 22010KT P6SM BKN150
     FM010200 29014G21KT P6SM SCT070 BKN100
     FM010500 31007KT P6SM BKN100
     FM011700 29010KT P6SM SCT100=



000
FTUS45 KSLC 312338
TAFLGU
TAF
KLGU 312338Z 0100/0124 21011KT P6SM SCT120 BKN200
     FM010200 30013G20KT P6SM SCT050 BKN100
     FM010600 34008KT P6SM SCT050 SCT100
     FM011500 32010KT P6SM SCT100=



000
FTUS45 KSLC 312338
TAFPVU
TAF
KPVU 312338Z 0100/0124 20010G17KT P6SM SCT100 BKN150
     FM010400 29014G21KT P6SM SCT070 BKN150
     FM010700 30018G28KT P6SM SCT080
     FM011500 31012G20KT P6SM SCT100
      AMD LTD TO CLD VIS AND WIND=



000
FTUS45 KSLC 312338
TAFBCE
TAF
KBCE 312338Z 0100/0124 22016G25KT P6SM SCT100 BKN150
     FM010200 24009KT P6SM FEW100
     FM011200 28010KT P6SM SKC
     FM011700 30014G24KT P6SM SCT100=



000
FTUS45 KSLC 312338
TAFPVU
TAF
KPVU 312338Z 0100/0124 20010G17KT P6SM SCT100 BKN150
     FM010400 29014G21KT P6SM SCT070 BKN150
     FM010700 30018G28KT P6SM SCT080
     FM011500 31012G20KT P6SM SCT100
      AMD LTD TO CLD VIS AND WIND=



000
FTUS45 KSLC 312338
TAFCDC
TAF
KCDC 312338Z 0100/0124 20020G30KT P6SM FEW200
     FM010200 19011KT P6SM FEW200
     FM010700 VRB05KT P6SM SCT150
     FM011200 01008KT P6SM FEW080=



000
FTUS45 KSLC 312338
TAFPVU
TAF
KPVU 312338Z 0100/0124 20010G17KT P6SM SCT100 BKN150
     FM010400 29014G21KT P6SM SCT070 BKN150
     FM010700 30018G28KT P6SM SCT080
     FM011500 31012G20KT P6SM SCT100
      AMD LTD TO CLD VIS AND WIND=



000
FTUS45 KSLC 312338
TAFCDC
TAF
KCDC 312338Z 0100/0124 20020G30KT P6SM FEW200
     FM010200 19011KT P6SM FEW200
     FM010700 VRB05KT P6SM SCT150
     FM011200 01008KT P6SM FEW080=



000
FTUS45 KSLC 312338
TAFBCE
TAF
KBCE 312338Z 0100/0124 22016G25KT P6SM SCT100 BKN150
     FM010200 24009KT P6SM FEW100
     FM011200 28010KT P6SM SKC
     FM011700 30014G24KT P6SM SCT100=



000
FTUS45 KSLC 312300 AAC
TAFSLC
TAF AMD
KSLC 312300Z 3123/0124 20018G26KT P6SM SCT110 BKN150
     FM010200 32018G28KT P6SM SCT070 BKN100
     FM010500 33009KT P6SM SCT060 BKN100
     FM011500 32010KT P6SM SCT060 SCT120=



000
FTUS45 KSLC 312300 AAC
TAFSLC
TAF AMD
KSLC 312300Z 3123/0124 20018G26KT P6SM SCT110 BKN150
     FM010200 32018G28KT P6SM SCT070 BKN100
     FM010500 33009KT P6SM SCT060 BKN100
     FM011500 32010KT P6SM SCT060 SCT120=



000
FTUS45 KSLC 312300 AAC
TAFSLC
TAF AMD
KSLC 312300Z 3123/0124 20018G26KT P6SM SCT110 BKN150
     FM010200 32018G28KT P6SM SCT070 BKN100
     FM010500 33009KT P6SM SCT060 BKN100
     FM011500 32010KT P6SM SCT060 SCT120=



000
FTUS45 KSLC 312300 AAC
TAFSLC
TAF AMD
KSLC 312300Z 3123/0124 20018G26KT P6SM SCT110 BKN150
     FM010200 32018G28KT P6SM SCT070 BKN100
     FM010500 33009KT P6SM SCT060 BKN100
     FM011500 32010KT P6SM SCT060 SCT120=



000
FTUS45 KSLC 312254 AAB
TAFOGD
TAF AMD
KOGD 312254Z 3123/0118 22010KT P6SM BKN150
     FM010200 28014G21KT P6SM SCT070 BKN120
     FM010500 31010KT P6SM SCT070 BKN100
     FM011500 32007KT P6SM SCT070 SCT120=



000
FTUS45 KSLC 312254 AAB
TAFOGD
TAF AMD
KOGD 312254Z 3123/0118 22010KT P6SM BKN150
     FM010200 28014G21KT P6SM SCT070 BKN120
     FM010500 31010KT P6SM SCT070 BKN100
     FM011500 32007KT P6SM SCT070 SCT120=



000
FTUS45 KSLC 312254 AAB
TAFOGD
TAF AMD
KOGD 312254Z 3123/0118 22010KT P6SM BKN150
     FM010200 28014G21KT P6SM SCT070 BKN120
     FM010500 31010KT P6SM SCT070 BKN100
     FM011500 32007KT P6SM SCT070 SCT120=



000
FTUS45 KSLC 312248 AAC
TAFENV
TAF AMD
KENV 312248Z 3123/0118 27018G26KT P6SM BKN100 BKN150
     FM010000 29025G35KT P6SM SCT060 BKN100
     FM010600 32012G19KT P6SM SCT060 SCT100
      AMD LTD TO CLD VIS AND WIND=



000
FTUS45 KSLC 312248 AAC
TAFENV
TAF AMD
KENV 312248Z 3123/0118 27018G26KT P6SM BKN100 BKN150
     FM010000 29025G35KT P6SM SCT060 BKN100
     FM010600 32012G19KT P6SM SCT060 SCT100
      AMD LTD TO CLD VIS AND WIND=



000
FTUS45 KSLC 312243 AAC
TAFSGU
TAF AMD
KSGU 312243Z 3123/0118 24010KT P6SM FEW200
     FM010200 VRB05KT P6SM SKC
      AMD LTD TO CLD VIS AND WIND=



000
FTUS45 KSLC 312243 AAC
TAFSGU
TAF AMD
KSGU 312243Z 3123/0118 24010KT P6SM FEW200
     FM010200 VRB05KT P6SM SKC
      AMD LTD TO CLD VIS AND WIND=



000
FTUS45 KSLC 312239 AAB
TAFPVU
TAF AMD
KPVU 312239Z 3123/0118 22009KT P6SM SCT150 BKN200
     FM010000 20010G17KT P6SM SCT120 BKN200
     FM010400 29014G21KT P6SM SCT080 BKN150
     FM010700 30018G28KT P6SM SCT080
     FM011500 31012G20KT P6SM SCT100
      AMD LTD TO CLD VIS AND WIND=



000
FTUS45 KSLC 312239 AAB
TAFPVU
TAF AMD
KPVU 312239Z 3123/0118 22009KT P6SM SCT150 BKN200
     FM010000 20010G17KT P6SM SCT120 BKN200
     FM010400 29014G21KT P6SM SCT080 BKN150
     FM010700 30018G28KT P6SM SCT080
     FM011500 31012G20KT P6SM SCT100
      AMD LTD TO CLD VIS AND WIND=



000
FTUS45 KSLC 312239 AAB
TAFPVU
TAF AMD
KPVU 312239Z 3123/0118 22009KT P6SM SCT150 BKN200
     FM010000 20010G17KT P6SM SCT120 BKN200
     FM010400 29014G21KT P6SM SCT080 BKN150
     FM010700 30018G28KT P6SM SCT080
     FM011500 31012G20KT P6SM SCT100
      AMD LTD TO CLD VIS AND WIND=



000
FTUS45 KSLC 312239 AAB
TAFPVU
TAF AMD
KPVU 312239Z 3123/0118 22009KT P6SM SCT150 BKN200
     FM010000 20010G17KT P6SM SCT120 BKN200
     FM010400 29014G21KT P6SM SCT080 BKN150
     FM010700 30018G28KT P6SM SCT080
     FM011500 31012G20KT P6SM SCT100
      AMD LTD TO CLD VIS AND WIND=



000
FTUS45 KSLC 312233 AAD
TAFLGU
TAF AMD
KLGU 312233Z 3123/0118 21018G23KT P6SM SCT120 BKN200
     FM010100 30013G20KT P6SM SCT050 BKN100
     FM010600 34010KT P6SM SCT050 SCT120=



000
FTUS45 KSLC 312233 AAD
TAFLGU
TAF AMD
KLGU 312233Z 3123/0118 21018G23KT P6SM SCT120 BKN200
     FM010100 30013G20KT P6SM SCT050 BKN100
     FM010600 34010KT P6SM SCT050 SCT120=



000
FTUS45 KSLC 312233 AAD
TAFLGU
TAF AMD
KLGU 312233Z 3123/0118 21018G23KT P6SM SCT120 BKN200
     FM010100 30013G20KT P6SM SCT050 BKN100
     FM010600 34010KT P6SM SCT050 SCT120=



000
FTUS45 KSLC 312233 AAD
TAFLGU
TAF AMD
KLGU 312233Z 3123/0118 21018G23KT P6SM SCT120 BKN200
     FM010100 30013G20KT P6SM SCT050 BKN100
     FM010600 34010KT P6SM SCT050 SCT120=



000
FTUS45 KSLC 312211 AAB
TAFENV
TAF AMD
KENV 312211Z 3122/0118 03008KT P6SM BKN120 BKN150 WS020/25030KT
     FM312330 27018G26KT P6SM BKN100 BKN150
     FM010000 29025G35KT P6SM SCT060 BKN100
     FM010600 32012G19KT P6SM SCT060 SCT100
      AMD LTD TO CLD VIS AND WIND=



000
FTUS45 KSLC 312152 AAC
TAFLGU
TAF AMD
KLGU 312152Z 3122/0118 24018G28KT P6SM SCT120 BKN200
     FM010100 30013G20KT P6SM SCT050 BKN100
     FM010600 34010KT P6SM SCT050 SCT120=



000
FTUS45 KSLC 312152 AAA
TAFENV
TAF AMD
KENV 312152Z 3122/0118 08008KT P6SM BKN200
     FM312300 28018G26KT P6SM SCT100 SCT200
     FM010000 29025G35KT P6SM SCT060 BKN100
     FM010600 32012G19KT P6SM SCT060 SCT100
      AMD LTD TO CLD VIS AND WIND=



000
FTUS45 KSLC 312152 AAA
TAFENV
TAF AMD
KENV 312152Z 3122/0118 08008KT P6SM BKN200
     FM312300 28018G26KT P6SM SCT100 SCT200
     FM010000 29025G35KT P6SM SCT060 BKN100
     FM010600 32012G19KT P6SM SCT060 SCT100
      AMD LTD TO CLD VIS AND WIND=



000
FTUS45 KSLC 312123 AAB
TAFSGU
TAF AMD
KSGU 312123Z 3121/0118 24015G23KT P6SM SCT200
     FM010200 26010KT P6SM SCT200
     FM010500 VRB04KT P6SM SCT200
      AMD LTD TO CLD VIS AND WIND=



000
FTUS45 KSLC 312123 AAB
TAFSGU
TAF AMD
KSGU 312123Z 3121/0118 24015G23KT P6SM SCT200
     FM010200 26010KT P6SM SCT200
     FM010500 VRB04KT P6SM SCT200
      AMD LTD TO CLD VIS AND WIND=



000
FTUS45 KSLC 312054 AAB
TAFSLC
TAF AMD
KSLC 312054Z 3121/0124 20018G26KT P6SM SCT110 BKN150
     FM010000 32018G28KT P6SM SCT070 BKN100
     FM010300 33009KT P6SM SCT060 BKN100
     FM011500 32010KT P6SM SCT060 SCT120=



000
FTUS45 KSLC 312054 AAB
TAFSLC
TAF AMD
KSLC 312054Z 3121/0124 20018G26KT P6SM SCT110 BKN150
     FM010000 32018G28KT P6SM SCT070 BKN100
     FM010300 33009KT P6SM SCT060 BKN100
     FM011500 32010KT P6SM SCT060 SCT120=



000
FTUS45 KSLC 312054 AAB
TAFSLC
TAF AMD
KSLC 312054Z 3121/0124 20018G26KT P6SM SCT110 BKN150
     FM010000 32018G28KT P6SM SCT070 BKN100
     FM010300 33009KT P6SM SCT060 BKN100
     FM011500 32010KT P6SM SCT060 SCT120=



000
FTUS45 KSLC 312054 AAB
TAFSLC
TAF AMD
KSLC 312054Z 3121/0124 20018G26KT P6SM SCT110 BKN150
     FM010000 32018G28KT P6SM SCT070 BKN100
     FM010300 33009KT P6SM SCT060 BKN100
     FM011500 32010KT P6SM SCT060 SCT120=



000
FTUS45 KSLC 312006 AAA
TAFSGU
TAF AMD
KSGU 312006Z 3120/0118 VRB04KT P6SM SKC
     FM312200 24015G23KT P6SM SCT200
     FM010200 26010KT P6SM SCT200
     FM010500 VRB04KT P6SM SCT200
      AMD LTD TO CLD VIS AND WIND=



000
FTUS45 KSLC 312006 AAA
TAFSGU
TAF AMD
KSGU 312006Z 3120/0118 VRB04KT P6SM SKC
     FM312200 24015G23KT P6SM SCT200
     FM010200 26010KT P6SM SCT200
     FM010500 VRB04KT P6SM SCT200
      AMD LTD TO CLD VIS AND WIND=



000
FTUS45 KSLC 312006 AAA
TAFSGU
TAF AMD
KSGU 312006Z 3120/0118 VRB04KT P6SM SKC
     FM312200 24015G23KT P6SM SCT200
     FM010200 26010KT P6SM SCT200
     FM010500 VRB04KT P6SM SCT200
      AMD LTD TO CLD VIS AND WIND=



000
FTUS45 KSLC 312006 AAA
TAFPVU
TAF AMD
KPVU 312006Z 3120/0118 18006KT P6SM SCT200
     FM312200 20010G17KT P6SM SCT120 BKN200
     FM010300 29019G28KT P6SM SCT080 BKN120
      AMD LTD TO CLD VIS AND WIND=



000
FTUS45 KSLC 312006 AAA
TAFPVU
TAF AMD
KPVU 312006Z 3120/0118 18006KT P6SM SCT200
     FM312200 20010G17KT P6SM SCT120 BKN200
     FM010300 29019G28KT P6SM SCT080 BKN120
      AMD LTD TO CLD VIS AND WIND=



000
FTUS45 KSLC 312006 AAA
TAFPVU
TAF AMD
KPVU 312006Z 3120/0118 18006KT P6SM SCT200
     FM312200 20010G17KT P6SM SCT120 BKN200
     FM010300 29019G28KT P6SM SCT080 BKN120
      AMD LTD TO CLD VIS AND WIND=



000
FTUS45 KSLC 312006 AAA
TAFPVU
TAF AMD
KPVU 312006Z 3120/0118 18006KT P6SM SCT200
     FM312200 20010G17KT P6SM SCT120 BKN200
     FM010300 29019G28KT P6SM SCT080 BKN120
      AMD LTD TO CLD VIS AND WIND=



000
FTUS45 KSLC 312006 AAA
TAFSGU
TAF AMD
KSGU 312006Z 3120/0118 VRB04KT P6SM SKC
     FM312200 24015G23KT P6SM SCT200
     FM010200 26010KT P6SM SCT200
     FM010500 VRB04KT P6SM SCT200
      AMD LTD TO CLD VIS AND WIND=



000
FTUS45 KSLC 312005 AAB
TAFLGU
TAF AMD
KLGU 312005Z 3120/0118 21018G28KT P6SM SCT120 BKN200
     FM010100 30013G20KT P6SM SCT050 BKN100
     FM010600 34010KT P6SM SCT050 SCT120=



000
FTUS45 KSLC 312005 AAB
TAFLGU
TAF AMD
KLGU 312005Z 3120/0118 21018G28KT P6SM SCT120 BKN200
     FM010100 30013G20KT P6SM SCT050 BKN100
     FM010600 34010KT P6SM SCT050 SCT120=



000
FTUS45 KSLC 312005 AAB
TAFLGU
TAF AMD
KLGU 312005Z 3120/0118 21018G28KT P6SM SCT120 BKN200
     FM010100 30013G20KT P6SM SCT050 BKN100
     FM010600 34010KT P6SM SCT050 SCT120=



000
FTUS45 KSLC 312005 AAB
TAFLGU
TAF AMD
KLGU 312005Z 3120/0118 21018G28KT P6SM SCT120 BKN200
     FM010100 30013G20KT P6SM SCT050 BKN100
     FM010600 34010KT P6SM SCT050 SCT120=



000
FTUS45 KSLC 311904 AAA
TAFOGD
TAF AMD
KOGD 311904Z 3119/0118 23015G22KT P6SM SCT100 BKN150
     FM010000 28014G21KT P6SM SCT070 BKN120
     FM010500 31010KT P6SM SCT070 BKN100
     FM011500 32007KT P6SM SCT070 SCT120=



000
FTUS45 KSLC 311904 AAA
TAFOGD
TAF AMD
KOGD 311904Z 3119/0118 23015G22KT P6SM SCT100 BKN150
     FM010000 28014G21KT P6SM SCT070 BKN120
     FM010500 31010KT P6SM SCT070 BKN100
     FM011500 32007KT P6SM SCT070 SCT120=



000
FTUS45 KSLC 311904 AAA
TAFOGD
TAF AMD
KOGD 311904Z 3119/0118 23015G22KT P6SM SCT100 BKN150
     FM010000 28014G21KT P6SM SCT070 BKN120
     FM010500 31010KT P6SM SCT070 BKN100
     FM011500 32007KT P6SM SCT070 SCT120=



000
FTUS45 KSLC 311904 AAA
TAFLGU
TAF AMD
KLGU 311904Z 3119/0118 VRB05KT P6SM SCT200
     FM312100 21012G20KT P6SM SCT120 BKN200
     FM010100 30013G20KT P6SM SCT050 BKN100
     FM010600 34010KT P6SM SCT050 SCT120=



000
FTUS45 KSLC 311720
TAFENV
TAF
KENV 311720Z 3118/0118 08008KT P6SM BKN200
     FM312100 28018G26KT P6SM SCT100 SCT200
     FM010000 29025G35KT P6SM SCT060 BKN100
     FM010600 32012G19KT P6SM SCT060 SCT100
      AMD LTD TO CLD VIS AND WIND=



000
FTUS45 KSLC 311720
TAFLGU
TAF
KLGU 311720Z 3118/0118 VRB05KT P6SM SCT200
     FM311900 21012G20KT P6SM SCT120 BKN200
     FM010100 30013G20KT P6SM SCT050 BKN100
     FM010600 34010KT P6SM SCT050 SCT120=



000
FTUS45 KSLC 311720
TAFSGU
TAF
KSGU 311720Z 3118/0118 VRB04KT P6SM SKC
     FM312000 24015G23KT P6SM SCT200
     FM010200 26010KT P6SM SCT200
     FM010500 VRB04KT P6SM SCT200
      AMD LTD TO CLD VIS AND WIND=



000
FTUS45 KSLC 311720
TAFCDC
TAF
KCDC 311720Z 3118/0118 20012G20KT P6SM SCT200
     FM312000 21020G30KT P6SM BKN200
     FM010200 20012G19KT P6SM FEW090 SCT150
     FM010900 VRB05KT P6SM SCT150=



000
FTUS45 KSLC 311720
TAFPVU
TAF
KPVU 311720Z 3118/0118 18006KT P6SM SCT200
     FM312000 20010G17KT P6SM SCT120 BKN200
     FM010300 29019G28KT P6SM SCT080 BKN120
      AMD LTD TO CLD VIS AND WIND=



000
FTUS45 KSLC 311720
TAFCDC
TAF
KCDC 311720Z 3118/0118 20012G20KT P6SM SCT200
     FM312000 21020G30KT P6SM BKN200
     FM010200 20012G19KT P6SM FEW090 SCT150
     FM010900 VRB05KT P6SM SCT150=



000
FTUS45 KSLC 311720
TAFSGU
TAF
KSGU 311720Z 3118/0118 VRB04KT P6SM SKC
     FM312000 24015G23KT P6SM SCT200
     FM010200 26010KT P6SM SCT200
     FM010500 VRB04KT P6SM SCT200
      AMD LTD TO CLD VIS AND WIND=



000
FTUS45 KSLC 311720
TAFSLC
TAF
KSLC 311720Z 3118/0124 18022G32KT P6SM SCT110 BKN150
     FM010000 32018G28KT P6SM SCT070 BKN100
     FM010300 33009KT P6SM SCT060 BKN100
     FM011500 32010KT P6SM SCT060 SCT120=



000
FTUS45 KSLC 311720
TAFPVU
TAF
KPVU 311720Z 3118/0118 18006KT P6SM SCT200
     FM312000 20010G17KT P6SM SCT120 BKN200
     FM010300 29019G28KT P6SM SCT080 BKN120
      AMD LTD TO CLD VIS AND WIND=



000
FTUS45 KSLC 311720
TAFBCE
TAF
KBCE 311720Z 3118/0118 22016G25KT P6SM BKN200
     FM010200 25009KT P6SM SCT200=



000
FTUS45 KSLC 311720
TAFSLC
TAF
KSLC 311720Z 3118/0124 18022G32KT P6SM SCT110 BKN150
     FM010000 32018G28KT P6SM SCT070 BKN100
     FM010300 33009KT P6SM SCT060 BKN100
     FM011500 32010KT P6SM SCT060 SCT120=



000
FTUS45 KSLC 311720
TAFBCE
TAF
KBCE 311720Z 3118/0118 22016G25KT P6SM BKN200
     FM010200 25009KT P6SM SCT200=



000
FTUS45 KSLC 311720
TAFOGD
TAF
KOGD 311720Z 3118/0118 17010KT P6SM FEW200
     FM311900 19014G21KT P6SM SCT120 BKN200
     FM312100 23015G22KT P6SM SCT100 BKN150
     FM010000 28014G21KT P6SM SCT070 BKN120
     FM010500 31010KT P6SM SCT070 BKN100
     FM011500 32007KT P6SM SCT070 SCT120=



000
FTUS45 KSLC 311720
TAFOGD
TAF
KOGD 311720Z 3118/0118 17010KT P6SM FEW200
     FM311900 19014G21KT P6SM SCT120 BKN200
     FM312100 23015G22KT P6SM SCT100 BKN150
     FM010000 28014G21KT P6SM SCT070 BKN120
     FM010500 31010KT P6SM SCT070 BKN100
     FM011500 32007KT P6SM SCT070 SCT120=



000
FTUS45 KSLC 311720
TAFENV
TAF
KENV 311720Z 3118/0118 08008KT P6SM BKN200
     FM312100 28018G26KT P6SM SCT100 SCT200
     FM010000 29025G35KT P6SM SCT060 BKN100
     FM010600 32012G19KT P6SM SCT060 SCT100
      AMD LTD TO CLD VIS AND WIND=



000
FTUS45 KSLC 311720
TAFLGU
TAF
KLGU 311720Z 3118/0118 VRB05KT P6SM SCT200
     FM311900 21012G20KT P6SM SCT120 BKN200
     FM010100 30013G20KT P6SM SCT050 BKN100
     FM010600 34010KT P6SM SCT050 SCT120=



000
FTUS45 KSLC 311720
TAFENV
TAF
KENV 311720Z 3118/0118 08008KT P6SM BKN200
     FM312100 28018G26KT P6SM SCT100 SCT200
     FM010000 29025G35KT P6SM SCT060 BKN100
     FM010600 32012G19KT P6SM SCT060 SCT100
      AMD LTD TO CLD VIS AND WIND=



000
FTUS45 KSLC 311720
TAFLGU
TAF
KLGU 311720Z 3118/0118 VRB05KT P6SM SCT200
     FM311900 21012G20KT P6SM SCT120 BKN200
     FM010100 30013G20KT P6SM SCT050 BKN100
     FM010600 34010KT P6SM SCT050 SCT120=



000
FTUS45 KSLC 311720
TAFSGU
TAF
KSGU 311720Z 3118/0118 VRB04KT P6SM SKC
     FM312000 24015G23KT P6SM SCT200
     FM010200 26010KT P6SM SCT200
     FM010500 VRB04KT P6SM SCT200
      AMD LTD TO CLD VIS AND WIND=



000
FTUS45 KSLC 311720
TAFENV
TAF
KENV 311720Z 3118/0118 08008KT P6SM BKN200
     FM312100 28018G26KT P6SM SCT100 SCT200
     FM010000 29025G35KT P6SM SCT060 BKN100
     FM010600 32012G19KT P6SM SCT060 SCT100
      AMD LTD TO CLD VIS AND WIND=



000
FTUS45 KSLC 311720
TAFCDC
TAF
KCDC 311720Z 3118/0118 20012G20KT P6SM SCT200
     FM312000 21020G30KT P6SM BKN200
     FM010200 20012G19KT P6SM FEW090 SCT150
     FM010900 VRB05KT P6SM SCT150=



000
FTUS45 KSLC 311720
TAFSLC
TAF
KSLC 311720Z 3118/0124 18022G32KT P6SM SCT110 BKN150
     FM010000 32018G28KT P6SM SCT070 BKN100
     FM010300 33009KT P6SM SCT060 BKN100
     FM011500 32010KT P6SM SCT060 SCT120=



000
FTUS45 KSLC 311720
TAFBCE
TAF
KBCE 311720Z 3118/0118 22016G25KT P6SM BKN200
     FM010200 25009KT P6SM SCT200=



000
FTUS45 KSLC 311720
TAFPVU
TAF
KPVU 311720Z 3118/0118 18006KT P6SM SCT200
     FM312000 20010G17KT P6SM SCT120 BKN200
     FM010300 29019G28KT P6SM SCT080 BKN120
      AMD LTD TO CLD VIS AND WIND=



000
FTUS45 KSLC 311720
TAFOGD
TAF
KOGD 311720Z 3118/0118 17010KT P6SM FEW200
     FM311900 19014G21KT P6SM SCT120 BKN200
     FM312100 23015G22KT P6SM SCT100 BKN150
     FM010000 28014G21KT P6SM SCT070 BKN120
     FM010500 31010KT P6SM SCT070 BKN100
     FM011500 32007KT P6SM SCT070 SCT120=



000
FTUS45 KSLC 311720
TAFLGU
TAF
KLGU 311720Z 3118/0118 VRB05KT P6SM SCT200
     FM311900 21012G20KT P6SM SCT120 BKN200
     FM010100 30013G20KT P6SM SCT050 BKN100
     FM010600 34010KT P6SM SCT050 SCT120=



000
FTUS45 KSLC 311516 AAB
TAFSLC
TAF AMD
KSLC 311516Z 3115/0118 15011KT P6SM FEW200
     FM311600 17014G21KT P6SM BKN200
     FM311800 18019G28KT P6SM SCT110 BKN150
     FM010000 32018G28KT P6SM SCT070 BKN100
     FM010500 33009KT P6SM SCT060 BKN100=



000
FTUS45 KSLC 311516 AAB
TAFSLC
TAF AMD
KSLC 311516Z 3115/0118 15011KT P6SM FEW200
     FM311600 17014G21KT P6SM BKN200
     FM311800 18019G28KT P6SM SCT110 BKN150
     FM010000 32018G28KT P6SM SCT070 BKN100
     FM010500 33009KT P6SM SCT060 BKN100=



000
FTUS45 KSLC 311453 AAA
TAFSLC
TAF AMD
KSLC 311453Z 3115/0118 15011KT P6SM FEW200
     FM311600 17014G21KT P6SM BKN200
     FM311800 18019G28KT P6SM SCT110 BKN150
     FM312200 30011KT P6SM SCT090 BKN120
     FM010200 32018G28KT P6SM SCT070 BKN100
     FM010500 33009KT P6SM SCT060 BKN100=



000
FTUS45 KSLC 311453 AAA
TAFSLC
TAF AMD
KSLC 311453Z 3115/0118 15011KT P6SM FEW200
     FM311600 17014G21KT P6SM BKN200
     FM311800 18019G28KT P6SM SCT110 BKN150
     FM312200 30011KT P6SM SCT090 BKN120
     FM010200 32018G28KT P6SM SCT070 BKN100
     FM010500 33009KT P6SM SCT060 BKN100=



000
FTUS45 KSLC 311120
TAFLGU
TAF
KLGU 311120Z 3112/0112 VRB05KT P6SM SKC
     FM311900 21012G20KT P6SM SCT120 BKN200
     FM010100 30013G20KT P6SM SCT050 BKN120
     FM010400 34010KT P6SM SCT050 BKN090=



000
FTUS45 KSLC 311120
TAFSGU
TAF
KSGU 311120Z 3112/0112 14008KT P6SM SKC
     FM312000 24015G23KT P6SM SCT200
     FM010200 26010KT P6SM SCT200
     FM010500 14007KT P6SM SCT200
      AMD LTD TO CLD VIS AND WIND=



000
FTUS45 KSLC 311120
TAFOGD
TAF
KOGD 311120Z 3112/0112 17010KT P6SM FEW200
     FM311800 19014G21KT P6SM SCT120 BKN200
     FM312100 23015G22KT P6SM SCT100 BKN150
     FM010200 28014G21KT P6SM SCT070 BKN120
     FM010500 31010KT P6SM SCT070 BKN100=



000
FTUS45 KSLC 311120
TAFSLC
TAF
KSLC 311120Z 3112/0118 15011KT P6SM FEW200
     FM311500 17014G21KT P6SM BKN200
     FM311700 18019G28KT P6SM SCT110 BKN150
     FM312200 30011KT P6SM SCT090 BKN120
     FM010200 32018G28KT P6SM SCT070 BKN100
     FM010500 33009KT P6SM SCT060 BKN100=



000
FTUS45 KSLC 311120
TAFBCE
TAF
KBCE 311120Z 3112/0112 28009KT P6SM SKC
     FM311600 15011KT P6SM SCT200
     FM311900 22016G25KT P6SM BKN200
     FM010200 24009KT P6SM SCT200=



000
FTUS45 KSLC 311120
TAFENV
TAF
KENV 311120Z 3112/0112 VRB04KT P6SM SCT200
     FM311600 12008KT P6SM BKN200
     FM312100 23018G26KT P6SM SCT100 SCT200
     FM010100 29022G33KT P6SM SCT060 BKN100
     FM010600 32012G19KT P6SM SCT060 SCT100
      AMD LTD TO CLD VIS AND WIND=



000
FTUS45 KSLC 311120
TAFSLC
TAF
KSLC 311120Z 3112/0118 15011KT P6SM FEW200
     FM311500 17014G21KT P6SM BKN200
     FM311700 18019G28KT P6SM SCT110 BKN150
     FM312200 30011KT P6SM SCT090 BKN120
     FM010200 32018G28KT P6SM SCT070 BKN100
     FM010500 33009KT P6SM SCT060 BKN100=



000
FTUS45 KSLC 311120
TAFLGU
TAF
KLGU 311120Z 3112/0112 VRB05KT P6SM SKC
     FM311900 21012G20KT P6SM SCT120 BKN200
     FM010100 30013G20KT P6SM SCT050 BKN120
     FM010400 34010KT P6SM SCT050 BKN090=



000
FTUS45 KSLC 311120
TAFENV
TAF
KENV 311120Z 3112/0112 VRB04KT P6SM SCT200
     FM311600 12008KT P6SM BKN200
     FM312100 23018G26KT P6SM SCT100 SCT200
     FM010100 29022G33KT P6SM SCT060 BKN100
     FM010600 32012G19KT P6SM SCT060 SCT100
      AMD LTD TO CLD VIS AND WIND=



000
FTUS45 KSLC 311120
TAFPVU
TAF
KPVU 311120Z 3112/0112 14008KT P6SM SCT200
     FM312000 20010G17KT P6SM SCT120 BKN200
     FM010300 29019G28KT P6SM SCT080 BKN120
      AMD LTD TO CLD VIS AND WIND=



000
FTUS45 KSLC 311120
TAFCDC
TAF
KCDC 311120Z 3112/0112 17009KT P6SM SKC
     FM311600 20012G19KT P6SM SCT200
     FM311900 21020G30KT P6SM BKN200
     FM010200 20012G19KT P6SM FEW090 SCT150=



000
FTUS45 KSLC 311120
TAFPVU
TAF
KPVU 311120Z 3112/0112 14008KT P6SM SCT200
     FM312000 20010G17KT P6SM SCT120 BKN200
     FM010300 29019G28KT P6SM SCT080 BKN120
      AMD LTD TO CLD VIS AND WIND=



000
FTUS45 KSLC 311120
TAFSGU
TAF
KSGU 311120Z 3112/0112 14008KT P6SM SKC
     FM312000 24015G23KT P6SM SCT200
     FM010200 26010KT P6SM SCT200
     FM010500 14007KT P6SM SCT200
      AMD LTD TO CLD VIS AND WIND=



000
FTUS45 KSLC 311120
TAFOGD
TAF
KOGD 311120Z 3112/0112 17010KT P6SM FEW200
     FM311800 19014G21KT P6SM SCT120 BKN200
     FM312100 23015G22KT P6SM SCT100 BKN150
     FM010200 28014G21KT P6SM SCT070 BKN120
     FM010500 31010KT P6SM SCT070 BKN100=



000
FTUS45 KSLC 311120
TAFBCE
TAF
KBCE 311120Z 3112/0112 28009KT P6SM SKC
     FM311600 15011KT P6SM SCT200
     FM311900 22016G25KT P6SM BKN200
     FM010200 24009KT P6SM SCT200=



000
FTUS45 KSLC 311120
TAFCDC
TAF
KCDC 311120Z 3112/0112 17009KT P6SM SKC
     FM311600 20012G19KT P6SM SCT200
     FM311900 21020G30KT P6SM BKN200
     FM010200 20012G19KT P6SM FEW090 SCT150=



000
FTUS45 KSLC 310913 AAA
TAFSLC
TAF AMD
KSLC 310913Z 3109/0112 15011KT P6SM FEW250
     FM311500 17014G21KT P6SM BKN250
     FM311800 18020G28KT P6SM SCT110 BKN150
     FM312200 30010KT P6SM SCT090 BKN120
     FM010200 32018G28KT P6SM SCT070 BKN100
     FM010500 33009KT P6SM SCT050 BKN100=



000
FTUS45 KSLC 310913 AAA
TAFSLC
TAF AMD
KSLC 310913Z 3109/0112 15011KT P6SM FEW250
     FM311500 17014G21KT P6SM BKN250
     FM311800 18020G28KT P6SM SCT110 BKN150
     FM312200 30010KT P6SM SCT090 BKN120
     FM010200 32018G28KT P6SM SCT070 BKN100
     FM010500 33009KT P6SM SCT050 BKN100=



000
FTUS45 KSLC 310539
TAFSGU
TAF
KSGU 310539Z 3106/0106 14008KT P6SM SKC
     FM312100 24015G23KT P6SM SKC
      AMD LTD TO CLD VIS AND WIND=



000
FTUS45 KSLC 310539
TAFBCE
TAF
KBCE 310539Z 3106/0106 26007KT P6SM SKC
     FM311600 16011KT P6SM SCT200
     FM311900 22014G26KT P6SM SCT200=



000
FTUS45 KSLC 310539
TAFCDC
TAF
KCDC 310539Z 3106/0106 14009KT P6SM SKC
     FM311800 21020G32KT P6SM FEW200=



000
FTUS45 KSLC 310539
TAFCDC
TAF
KCDC 310539Z 3106/0106 14009KT P6SM SKC
     FM311800 21020G32KT P6SM FEW200=



000
FTUS45 KSLC 310539
TAFOGD
TAF
KOGD 310539Z 3106/0106 17009KT P6SM FEW200
     FM311900 21014G24KT P6SM FEW150 BKN200=



000
FTUS45 KSLC 310539
TAFBCE
TAF
KBCE 310539Z 3106/0106 26007KT P6SM SKC
     FM311600 16011KT P6SM SCT200
     FM311900 22014G26KT P6SM SCT200=



000
FTUS45 KSLC 310539
TAFOGD
TAF
KOGD 310539Z 3106/0106 17009KT P6SM FEW200
     FM311900 21014G24KT P6SM FEW150 BKN200=



000
FTUS45 KSLC 310539
TAFSLC
TAF
KSLC 310539Z 3106/0112 14008KT P6SM SKC
     FM311200 15013KT P6SM FEW250
     FM311500 17014G22KT P6SM BKN250
     FM311900 18020G28KT P6SM SCT150 BKN200
     FM010200 30018G28KT P6SM SCT080 BKN150=



000
FTUS45 KSLC 310539
TAFPVU
TAF
KPVU 310539Z 3106/0106 VRB04KT P6SM SKC
     FM311100 14008KT P6SM SCT200
     FM312100 21010G17KT P6SM BKN200
      AMD LTD TO CLD VIS AND WIND=



000
FTUS45 KSLC 310539
TAFLGU
TAF
KLGU 310539Z 3106/0106 VRB05KT P6SM SKC
     FM311900 21011G20KT P6SM FEW150 BKN200=



000
FTUS45 KSLC 310539
TAFENV
TAF
KENV 310539Z 3106/0106 VRB04KT P6SM SCT250
     FM311600 14007KT P6SM SCT200
     FM312100 23015G25KT P6SM FEW100 BKN200
      AMD LTD TO CLD VIS AND WIND=



000
FTUS45 KSLC 310539
TAFENV
TAF
KENV 310539Z 3106/0106 VRB04KT P6SM SCT250
     FM311600 14007KT P6SM SCT200
     FM312100 23015G25KT P6SM FEW100 BKN200
      AMD LTD TO CLD VIS AND WIND=



000
FTUS45 KSLC 310539
TAFLGU
TAF
KLGU 310539Z 3106/0106 VRB05KT P6SM SKC
     FM311900 21011G20KT P6SM FEW150 BKN200=



000
FTUS45 KSLC 310539
TAFSLC
TAF
KSLC 310539Z 3106/0112 14008KT P6SM SKC
     FM311200 15013KT P6SM FEW250
     FM311500 17014G22KT P6SM BKN250
     FM311900 18020G28KT P6SM SCT150 BKN200
     FM010200 30018G28KT P6SM SCT080 BKN150=



000
FTUS45 KSLC 310539
TAFPVU
TAF
KPVU 310539Z 3106/0106 VRB04KT P6SM SKC
     FM311100 14008KT P6SM SCT200
     FM312100 21010G17KT P6SM BKN200
      AMD LTD TO CLD VIS AND WIND=



000
FTUS45 KSLC 310539
TAFSGU
TAF
KSGU 310539Z 3106/0106 14008KT P6SM SKC
     FM312100 24015G23KT P6SM SKC
      AMD LTD TO CLD VIS AND WIND=



000
FTUS45 KSLC 310539
TAFOGD
TAF
KOGD 310539Z 3106/0106 17009KT P6SM FEW200
     FM311900 21014G24KT P6SM FEW150 BKN200=



000
FTUS45 KSLC 310539
TAFCDC
TAF
KCDC 310539Z 3106/0106 14009KT P6SM SKC
     FM311800 21020G32KT P6SM FEW200=



000
FTUS45 KSLC 310539
TAFOGD
TAF
KOGD 310539Z 3106/0106 17009KT P6SM FEW200
     FM311900 21014G24KT P6SM FEW150 BKN200=



000
FTUS45 KSLC 310539
TAFBCE
TAF
KBCE 310539Z 3106/0106 26007KT P6SM SKC
     FM311600 16011KT P6SM SCT200
     FM311900 22014G26KT P6SM SCT200=



000
FTUS45 KSLC 310539
TAFSGU
TAF
KSGU 310539Z 3106/0106 14008KT P6SM SKC
     FM312100 24015G23KT P6SM SKC
      AMD LTD TO CLD VIS AND WIND=



000
FTUS45 KSLC 310539
TAFSLC
TAF
KSLC 310539Z 3106/0112 14008KT P6SM SKC
     FM311200 15013KT P6SM FEW250
     FM311500 17014G22KT P6SM BKN250
     FM311900 18020G28KT P6SM SCT150 BKN200
     FM010200 30018G28KT P6SM SCT080 BKN150=



000
FTUS45 KSLC 310539
TAFLGU
TAF
KLGU 310539Z 3106/0106 VRB05KT P6SM SKC
     FM311900 21011G20KT P6SM FEW150 BKN200=



000
FTUS45 KSLC 310539
TAFPVU
TAF
KPVU 310539Z 3106/0106 VRB04KT P6SM SKC
     FM311100 14008KT P6SM SCT200
     FM312100 21010G17KT P6SM BKN200
      AMD LTD TO CLD VIS AND WIND=



000
FTUS45 KSLC 310539
TAFSLC
TAF
KSLC 310539Z 3106/0112 14008KT P6SM SKC
     FM311200 15013KT P6SM FEW250
     FM311500 17014G22KT P6SM BKN250
     FM311900 18020G28KT P6SM SCT150 BKN200
     FM010200 30018G28KT P6SM SCT080 BKN150=



000
FTUS45 KSLC 310539
TAFBCE
TAF
KBCE 310539Z 3106/0106 26007KT P6SM SKC
     FM311600 16011KT P6SM SCT200
     FM311900 22014G26KT P6SM SCT200=



000
FTUS45 KSLC 310539
TAFSGU
TAF
KSGU 310539Z 3106/0106 14008KT P6SM SKC
     FM312100 24015G23KT P6SM SKC
      AMD LTD TO CLD VIS AND WIND=



000
FTUS45 KSLC 310539
TAFPVU
TAF
KPVU 310539Z 3106/0106 VRB04KT P6SM SKC
     FM311100 14008KT P6SM SCT200
     FM312100 21010G17KT P6SM BKN200
      AMD LTD TO CLD VIS AND WIND=



000
FTUS45 KSLC 310539
TAFCDC
TAF
KCDC 310539Z 3106/0106 14009KT P6SM SKC
     FM311800 21020G32KT P6SM FEW200=



000
FTUS45 KSLC 310539
TAFENV
TAF
KENV 310539Z 3106/0106 VRB04KT P6SM SCT250
     FM311600 14007KT P6SM SCT200
     FM312100 23015G25KT P6SM FEW100 BKN200
      AMD LTD TO CLD VIS AND WIND=



000
FTUS45 KSLC 310307 AAB
TAFSLC
TAF AMD
KSLC 310307Z 3103/0106 14005KT P6SM SKC
     FM311000 15012KT P6SM FEW250
     FM311500 17014G22KT P6SM BKN250
     FM311900 18020G28KT P6SM SCT150 BKN200
     FM010300 30018G28KT P6SM SCT080 BKN150=



000
FTUS45 KSLC 310307 AAB
TAFSLC
TAF AMD
KSLC 310307Z 3103/0106 14005KT P6SM SKC
     FM311000 15012KT P6SM FEW250
     FM311500 17014G22KT P6SM BKN250
     FM311900 18020G28KT P6SM SCT150 BKN200
     FM010300 30018G28KT P6SM SCT080 BKN150=



000
FTUS45 KSLC 310143 AAA
TAFCDC
TAF AMD
KCDC 310143Z 3102/3124 22008KT P6SM SKC
     FM310300 17005KT P6SM SKC
     FM311800 21020G32KT P6SM FEW200=



000
FTUS45 KSLC 310143 AAA
TAFCDC
TAF AMD
KCDC 310143Z 3102/3124 22008KT P6SM SKC
     FM310300 17005KT P6SM SKC
     FM311800 21020G32KT P6SM FEW200=



000
FTUS45 KSLC 302334
TAFLGU
TAF
KLGU 302334Z 3100/3124 VRB05KT P6SM SKC
     FM311900 21011G20KT P6SM FEW150 BKN200=



000
FTUS45 KSLC 302334
TAFPVU
TAF
KPVU 302334Z 3100/3124 VRB04KT P6SM SKC
     FM311600 14008KT P6SM SCT200
     FM312100 21010G17KT P6SM BKN200
      AMD LTD TO CLD VIS AND WIND=



000
FTUS45 KSLC 302334
TAFSLC
TAF
KSLC 302334Z 3100/0106 32008KT P6SM SKC
     FM310300 15009KT P6SM FEW250
     FM311500 17014G22KT P6SM BKN250
     FM311900 18020G28KT P6SM SCT150 BKN200
     FM010300 30018G28KT P6SM SCT080 BKN150=



000
FTUS45 KSLC 302334
TAFOGD
TAF
KOGD 302334Z 3100/3124 35006KT P6SM SKC
     FM310300 17009KT P6SM FEW200
     FM311900 21014G24KT P6SM FEW150 BKN200=



000
FTUS45 KSLC 302334
TAFSGU
TAF
KSGU 302334Z 3100/3124 25010KT P6SM SKC
     FM310300 VRB04KT P6SM SKC
     FM312100 24015G23KT P6SM SKC
      AMD LTD TO CLD VIS AND WIND=



000
FTUS45 KSLC 302334
TAFENV
TAF
KENV 302334Z 3100/3124 11006KT P6SM SKC
     FM310200 VRB04KT P6SM SCT250
     FM311600 14007KT P6SM SCT200
     FM312100 23015G25KT P6SM FEW100 BKN200
      AMD LTD TO CLD VIS AND WIND=



000
FTUS45 KSLC 302334
TAFCDC
TAF
KCDC 302334Z 3100/3124 22010G18KT P6SM FEW250
     FM310300 17005KT P6SM SKC
     FM311800 21020G32KT P6SM FEW200=



000
FTUS45 KSLC 302334
TAFBCE
TAF
KBCE 302334Z 3100/3124 32011G18KT P6SM SCT070 BKN100
     FM310100 26007KT P6SM SKC
     FM311600 16011KT P6SM SCT200
     FM311900 22014G26KT P6SM SCT200=



000
FTUS45 KSLC 302334
TAFLGU
TAF
KLGU 302334Z 3100/3124 VRB05KT P6SM SKC
     FM311900 21011G20KT P6SM FEW150 BKN200=



000
FTUS45 KSLC 302334
TAFBCE
TAF
KBCE 302334Z 3100/3124 32011G18KT P6SM SCT070 BKN100
     FM310100 26007KT P6SM SKC
     FM311600 16011KT P6SM SCT200
     FM311900 22014G26KT P6SM SCT200=



000
FTUS45 KSLC 302334
TAFPVU
TAF
KPVU 302334Z 3100/3124 VRB04KT P6SM SKC
     FM311600 14008KT P6SM SCT200
     FM312100 21010G17KT P6SM BKN200
      AMD LTD TO CLD VIS AND WIND=



000
FTUS45 KSLC 302334
TAFSGU
TAF
KSGU 302334Z 3100/3124 25010KT P6SM SKC
     FM310300 VRB04KT P6SM SKC
     FM312100 24015G23KT P6SM SKC
      AMD LTD TO CLD VIS AND WIND=



000
FTUS45 KSLC 302334
TAFCDC
TAF
KCDC 302334Z 3100/3124 22010G18KT P6SM FEW250
     FM310300 17005KT P6SM SKC
     FM311800 21020G32KT P6SM FEW200=



000
FTUS45 KSLC 302334
TAFOGD
TAF
KOGD 302334Z 3100/3124 35006KT P6SM SKC
     FM310300 17009KT P6SM FEW200
     FM311900 21014G24KT P6SM FEW150 BKN200=



000
FTUS45 KSLC 302334
TAFENV
TAF
KENV 302334Z 3100/3124 11006KT P6SM SKC
     FM310200 VRB04KT P6SM SCT250
     FM311600 14007KT P6SM SCT200
     FM312100 23015G25KT P6SM FEW100 BKN200
      AMD LTD TO CLD VIS AND WIND=



000
FTUS45 KSLC 302334
TAFSLC
TAF
KSLC 302334Z 3100/0106 32008KT P6SM SKC
     FM310300 15009KT P6SM FEW250
     FM311500 17014G22KT P6SM BKN250
     FM311900 18020G28KT P6SM SCT150 BKN200
     FM010300 30018G28KT P6SM SCT080 BKN150=



000
FTUS45 KSLC 302056 AAA
TAFSLC
TAF AMD
KSLC 302056Z 3021/3124 32008KT P6SM SKC
     FM310300 15009KT P6SM SCT250
     FM311500 17012G18KT P6SM BKN250
     FM311900 18018G26KT P6SM SCT120 BKN200=



000
FTUS45 KSLC 301742
TAFSGU
TAF
KSGU 301742Z 3018/3118 VRB04KT P6SM SCT250
     FM302100 25007KT P6SM SCT250
     FM310400 VRB04KT P6SM SKC
      AMD LTD TO CLD VIS AND WIND=



000
FTUS45 KSLC 301742
TAFSGU
TAF
KSGU 301742Z 3018/3118 VRB04KT P6SM SCT250
     FM302100 25007KT P6SM SCT250
     FM310400 VRB04KT P6SM SKC
      AMD LTD TO CLD VIS AND WIND=



000
FTUS45 KSLC 301742
TAFPVU
TAF
KPVU 301742Z 3018/3118 VRB05KT P6SM SKC
     FM302100 30007KT P6SM SKC
     FM310400 VRB04KT P6SM SCT250
      AMD LTD TO CLD VIS AND WIND=



000
FTUS45 KSLC 301742
TAFCDC
TAF
KCDC 301742Z 3018/3118 VRB05KT P6SM SCT250
     FM301900 22010KT P6SM FEW090 SCT250
     FM310300 17006KT P6SM SCT250=



000
FTUS45 KSLC 301742
TAFBCE
TAF
KBCE 301742Z 3018/3118 20009KT P6SM SCT070
     FM310200 26007KT P6SM SKC
     FM311700 17011KT P6SM SCT200=



000
FTUS45 KSLC 301742
TAFSLC
TAF
KSLC 301742Z 3018/3124 32008KT P6SM SKC
     FM310300 15009KT P6SM SCT250
     FM311500 17012G18KT P6SM BKN250
     FM311900 18018G26KT P6SM SCT120 BKN200=



000
FTUS45 KSLC 301742
TAFBCE
TAF
KBCE 301742Z 3018/3118 20009KT P6SM SCT070
     FM310200 26007KT P6SM SKC
     FM311700 17011KT P6SM SCT200=



000
FTUS45 KSLC 301742
TAFPVU
TAF
KPVU 301742Z 3018/3118 VRB05KT P6SM SKC
     FM302100 30007KT P6SM SKC
     FM310400 VRB04KT P6SM SCT250
      AMD LTD TO CLD VIS AND WIND=



000
FTUS45 KSLC 301742
TAFCDC
TAF
KCDC 301742Z 3018/3118 VRB05KT P6SM SCT250
     FM301900 22010KT P6SM FEW090 SCT250
     FM310300 17006KT P6SM SCT250=



000
FTUS45 KSLC 301742
TAFOGD
TAF
KOGD 301742Z 3018/3118 35006KT P6SM SKC
     FM310300 17009KT P6SM SCT250=



000
FTUS45 KSLC 301742
TAFLGU
TAF
KLGU 301742Z 3018/3118 VRB05KT P6SM SKC=



000
FTUS45 KSLC 301742
TAFENV
TAF
KENV 301742Z 3018/3118 11006KT P6SM SKC
     FM310200 VRB04KT P6SM SCT250
     FM311600 12007KT P6SM BKN200
      AMD LTD TO CLD VIS AND WIND=



000
FTUS45 KSLC 301742
TAFSLC
TAF
KSLC 301742Z 3018/3124 32008KT P6SM SKC
     FM310300 15009KT P6SM SCT250
     FM311500 17012G18KT P6SM BKN250
     FM311900 18018G26KT P6SM SCT120 BKN200=



000
FTUS45 KSLC 301742
TAFOGD
TAF
KOGD 301742Z 3018/3118 35006KT P6SM SKC
     FM310300 17009KT P6SM SCT250=



000
FTUS45 KSLC 301742
TAFENV
TAF
KENV 301742Z 3018/3118 11006KT P6SM SKC
     FM310200 VRB04KT P6SM SCT250
     FM311600 12007KT P6SM BKN200
      AMD LTD TO CLD VIS AND WIND=



000
FTUS45 KSLC 301742
TAFLGU
TAF
KLGU 301742Z 3018/3118 VRB05KT P6SM SKC=



000
FTUS45 KSLC 301742
TAFPVU
TAF
KPVU 301742Z 3018/3118 VRB05KT P6SM SKC
     FM302100 30007KT P6SM SKC
     FM310400 VRB04KT P6SM SCT250
      AMD LTD TO CLD VIS AND WIND=



000
FTUS45 KSLC 301742
TAFSGU
TAF
KSGU 301742Z 3018/3118 VRB04KT P6SM SCT250
     FM302100 25007KT P6SM SCT250
     FM310400 VRB04KT P6SM SKC
      AMD LTD TO CLD VIS AND WIND=



000
FTUS45 KSLC 301742
TAFSGU
TAF
KSGU 301742Z 3018/3118 VRB04KT P6SM SCT250
     FM302100 25007KT P6SM SCT250
     FM310400 VRB04KT P6SM SKC
      AMD LTD TO CLD VIS AND WIND=



000
FTUS45 KSLC 301742
TAFBCE
TAF
KBCE 301742Z 3018/3118 20009KT P6SM SCT070
     FM310200 26007KT P6SM SKC
     FM311700 17011KT P6SM SCT200=



000
FTUS45 KSLC 301742
TAFCDC
TAF
KCDC 301742Z 3018/3118 VRB05KT P6SM SCT250
     FM301900 22010KT P6SM FEW090 SCT250
     FM310300 17006KT P6SM SCT250=



000
FTUS45 KSLC 301742
TAFENV
TAF
KENV 301742Z 3018/3118 11006KT P6SM SKC
     FM310200 VRB04KT P6SM SCT250
     FM311600 12007KT P6SM BKN200
      AMD LTD TO CLD VIS AND WIND=



000
FTUS45 KSLC 301742
TAFLGU
TAF
KLGU 301742Z 3018/3118 VRB05KT P6SM SKC=



000
FTUS45 KSLC 301742
TAFPVU
TAF
KPVU 301742Z 3018/3118 VRB05KT P6SM SKC
     FM302100 30007KT P6SM SKC
     FM310400 VRB04KT P6SM SCT250
      AMD LTD TO CLD VIS AND WIND=



000
FTUS45 KSLC 301742
TAFBCE
TAF
KBCE 301742Z 3018/3118 20009KT P6SM SCT070
     FM310200 26007KT P6SM SKC
     FM311700 17011KT P6SM SCT200=



000
FTUS45 KSLC 301742
TAFSLC
TAF
KSLC 301742Z 3018/3124 32008KT P6SM SKC
     FM310300 15009KT P6SM SCT250
     FM311500 17012G18KT P6SM BKN250
     FM311900 18018G26KT P6SM SCT120 BKN200=



000
FTUS45 KSLC 301742
TAFOGD
TAF
KOGD 301742Z 3018/3118 35006KT P6SM SKC
     FM310300 17009KT P6SM SCT250=



000
FTUS45 KSLC 301742
TAFCDC
TAF
KCDC 301742Z 3018/3118 VRB05KT P6SM SCT250
     FM301900 22010KT P6SM FEW090 SCT250
     FM310300 17006KT P6SM SCT250=



000
FTUS45 KSLC 301742
TAFOGD
TAF
KOGD 301742Z 3018/3118 35006KT P6SM SKC
     FM310300 17009KT P6SM SCT250=



000
FTUS45 KSLC 301742
TAFSLC
TAF
KSLC 301742Z 3018/3124 32008KT P6SM SKC
     FM310300 15009KT P6SM SCT250
     FM311500 17012G18KT P6SM BKN250
     FM311900 18018G26KT P6SM SCT120 BKN200=



000
FTUS45 KSLC 301742
TAFENV
TAF
KENV 301742Z 3018/3118 11006KT P6SM SKC
     FM310200 VRB04KT P6SM SCT250
     FM311600 12007KT P6SM BKN200
      AMD LTD TO CLD VIS AND WIND=



000
FTUS45 KSLC 301742
TAFLGU
TAF
KLGU 301742Z 3018/3118 VRB05KT P6SM SKC=



000
FTUS45 KSLC 301507 AAA
TAFSLC
TAF AMD
KSLC 301507Z 3015/3118 16006KT P6SM SKC
     FM301800 32008KT P6SM SKC
     FM310300 15009KT P6SM BKN250
     FM311600 17012G19KT P6SM SCT120 BKN250=



000
FTUS45 KSLC 301507 AAA
TAFSLC
TAF AMD
KSLC 301507Z 3015/3118 16006KT P6SM SKC
     FM301800 32008KT P6SM SKC
     FM310300 15009KT P6SM BKN250
     FM311600 17012G19KT P6SM SCT120 BKN250=



000
FTUS45 KSLC 301507 AAA
TAFSLC
TAF AMD
KSLC 301507Z 3015/3118 16006KT P6SM SKC
     FM301800 32008KT P6SM SKC
     FM310300 15009KT P6SM BKN250
     FM311600 17012G19KT P6SM SCT120 BKN250=



000
FTUS45 KSLC 301507 AAA
TAFSLC
TAF AMD
KSLC 301507Z 3015/3118 16006KT P6SM SKC
     FM301800 32008KT P6SM SKC
     FM310300 15009KT P6SM BKN250
     FM311600 17012G19KT P6SM SCT120 BKN250=



000
FTUS45 KSLC 301120
TAFOGD
TAF
KOGD 301120Z 3012/3112 17009KT P6SM SKC
     FM301900 29006KT P6SM SCT200
     FM310300 17009KT P6SM BKN200=



000
FTUS45 KSLC 301120
TAFBCE
TAF
KBCE 301120Z 3012/3112 27009KT P6SM SCT150
     FM301600 15009KT P6SM FEW070 SCT150
     FM302100 22010G15KT P6SM SCT070 SCT150
     FM310200 26007KT P6SM FEW070 BKN150=



000
FTUS45 KSLC 301120
TAFOGD
TAF
KOGD 301120Z 3012/3112 17009KT P6SM SKC
     FM301900 29006KT P6SM SCT200
     FM310300 17009KT P6SM BKN200=



000
FTUS45 KSLC 301120
TAFPVU
TAF
KPVU 301120Z 3012/3112 VRB05KT P6SM SKC
     FM302100 30007KT P6SM SCT200
     FM310400 13006KT P6SM BKN200
      AMD LTD TO CLD VIS AND WIND=



000
FTUS45 KSLC 301120
TAFLGU
TAF
KLGU 301120Z 3012/3112 VRB05KT P6SM SKC=



000
FTUS45 KSLC 301120
TAFOGD
TAF
KOGD 301120Z 3012/3112 17009KT P6SM SKC
     FM301900 29006KT P6SM SCT200
     FM310300 17009KT P6SM BKN200=



000
FTUS45 KSLC 301120
TAFENV
TAF
KENV 301120Z 3012/3112 VRB04KT P6SM SKC
     FM301600 11006KT P6SM SCT200
     FM310200 30007KT P6SM BKN200
     FM310700 VRB04KT P6SM BKN200
      AMD LTD TO CLD VIS AND WIND=



000
FTUS45 KSLC 301120
TAFCDC
TAF
KCDC 301120Z 3012/3112 VRB05KT P6SM SCT200
     FM301800 22010KT P6SM FEW090 SCT200
     FM310300 17006KT P6SM BKN200=



000
FTUS45 KSLC 301120
TAFLGU
TAF
KLGU 301120Z 3012/3112 VRB05KT P6SM SKC=



000
FTUS45 KSLC 301120
TAFENV
TAF
KENV 301120Z 3012/3112 VRB04KT P6SM SKC
     FM301600 11006KT P6SM SCT200
     FM310200 30007KT P6SM BKN200
     FM310700 VRB04KT P6SM BKN200
      AMD LTD TO CLD VIS AND WIND=



000
FTUS45 KSLC 301120
TAFCDC
TAF
KCDC 301120Z 3012/3112 VRB05KT P6SM SCT200
     FM301800 22010KT P6SM FEW090 SCT200
     FM310300 17006KT P6SM BKN200=



000
FTUS45 KSLC 301120
TAFCDC
TAF
KCDC 301120Z 3012/3112 VRB05KT P6SM SCT200
     FM301800 22010KT P6SM FEW090 SCT200
     FM310300 17006KT P6SM BKN200=



000
FTUS45 KSLC 301120
TAFCDC
TAF
KCDC 301120Z 3012/3112 VRB05KT P6SM SCT200
     FM301800 22010KT P6SM FEW090 SCT200
     FM310300 17006KT P6SM BKN200=



000
FTUS45 KSLC 301120
TAFSGU
TAF
KSGU 301120Z 3012/3112 14006KT P6SM SCT200
     FM301600 VRB04KT P6SM SCT200
     FM302100 25007KT P6SM SCT200
     FM310400 14006KT P6SM BKN200
      AMD LTD TO CLD VIS AND WIND=



000
FTUS45 KSLC 301120
TAFSGU
TAF
KSGU 301120Z 3012/3112 14006KT P6SM SCT200
     FM301600 VRB04KT P6SM SCT200
     FM302100 25007KT P6SM SCT200
     FM310400 14006KT P6SM BKN200
      AMD LTD TO CLD VIS AND WIND=



000
FTUS45 KSLC 301120
TAFSLC
TAF
KSLC 301120Z 3012/3118 16008KT P6SM SKC
     FM301800 32008KT P6SM SCT200
     FM310300 15009KT P6SM BKN200
     FM311600 17012G19KT P6SM SCT120 BKN200=



000
FTUS45 KSLC 301120
TAFENV
TAF
KENV 301120Z 3012/3112 VRB04KT P6SM SKC
     FM301600 11006KT P6SM SCT200
     FM310200 30007KT P6SM BKN200
     FM310700 VRB04KT P6SM BKN200
      AMD LTD TO CLD VIS AND WIND=



000
FTUS45 KSLC 301120
TAFSLC
TAF
KSLC 301120Z 3012/3118 16008KT P6SM SKC
     FM301800 32008KT P6SM SCT200
     FM310300 15009KT P6SM BKN200
     FM311600 17012G19KT P6SM SCT120 BKN200=



000
FTUS45 KSLC 301120
TAFBCE
TAF
KBCE 301120Z 3012/3112 27009KT P6SM SCT150
     FM301600 15009KT P6SM FEW070 SCT150
     FM302100 22010G15KT P6SM SCT070 SCT150
     FM310200 26007KT P6SM FEW070 BKN150=



000
FTUS45 KSLC 301120
TAFENV
TAF
KENV 301120Z 3012/3112 VRB04KT P6SM SKC
     FM301600 11006KT P6SM SCT200
     FM310200 30007KT P6SM BKN200
     FM310700 VRB04KT P6SM BKN200
      AMD LTD TO CLD VIS AND WIND=



000
FTUS45 KSLC 301120
TAFBCE
TAF
KBCE 301120Z 3012/3112 27009KT P6SM SCT150
     FM301600 15009KT P6SM FEW070 SCT150
     FM302100 22010G15KT P6SM SCT070 SCT150
     FM310200 26007KT P6SM FEW070 BKN150=



000
FTUS45 KSLC 301120
TAFPVU
TAF
KPVU 301120Z 3012/3112 VRB05KT P6SM SKC
     FM302100 30007KT P6SM SCT200
     FM310400 13006KT P6SM BKN200
      AMD LTD TO CLD VIS AND WIND=



000
FTUS45 KSLC 301120
TAFSLC
TAF
KSLC 301120Z 3012/3118 16008KT P6SM SKC
     FM301800 32008KT P6SM SCT200
     FM310300 15009KT P6SM BKN200
     FM311600 17012G19KT P6SM SCT120 BKN200=



000
FTUS45 KSLC 301120
TAFLGU
TAF
KLGU 301120Z 3012/3112 VRB05KT P6SM SKC=



000
FTUS45 KSLC 301120
TAFBCE
TAF
KBCE 301120Z 3012/3112 27009KT P6SM SCT150
     FM301600 15009KT P6SM FEW070 SCT150
     FM302100 22010G15KT P6SM SCT070 SCT150
     FM310200 26007KT P6SM FEW070 BKN150=



000
FTUS45 KSLC 301120
TAFPVU
TAF
KPVU 301120Z 3012/3112 VRB05KT P6SM SKC
     FM302100 30007KT P6SM SCT200
     FM310400 13006KT P6SM BKN200
      AMD LTD TO CLD VIS AND WIND=



000
FTUS45 KSLC 301120
TAFSGU
TAF
KSGU 301120Z 3012/3112 14006KT P6SM SCT200
     FM301600 VRB04KT P6SM SCT200
     FM302100 25007KT P6SM SCT200
     FM310400 14006KT P6SM BKN200
      AMD LTD TO CLD VIS AND WIND=



000
FTUS45 KSLC 301120
TAFSLC
TAF
KSLC 301120Z 3012/3118 16008KT P6SM SKC
     FM301800 32008KT P6SM SCT200
     FM310300 15009KT P6SM BKN200
     FM311600 17012G19KT P6SM SCT120 BKN200=



000
FTUS45 KSLC 301120
TAFOGD
TAF
KOGD 301120Z 3012/3112 17009KT P6SM SKC
     FM301900 29006KT P6SM SCT200
     FM310300 17009KT P6SM BKN200=



000
FTUS45 KSLC 301120
TAFSGU
TAF
KSGU 301120Z 3012/3112 14006KT P6SM SCT200
     FM301600 VRB04KT P6SM SCT200
     FM302100 25007KT P6SM SCT200
     FM310400 14006KT P6SM BKN200
      AMD LTD TO CLD VIS AND WIND=



000
FTUS45 KSLC 301120
TAFLGU
TAF
KLGU 301120Z 3012/3112 VRB05KT P6SM SKC=



000
FTUS45 KSLC 301120
TAFPVU
TAF
KPVU 301120Z 3012/3112 VRB05KT P6SM SKC
     FM302100 30007KT P6SM SCT200
     FM310400 13006KT P6SM BKN200
      AMD LTD TO CLD VIS AND WIND=



000
FTUS45 KSLC 300850 AAA
TAFSLC
TAF AMD
KSLC 300850Z 3009/3112 16005KT P6SM SKC
     FM301800 32008KT P6SM SCT200
     FM310300 15008KT P6SM BKN200=



000
FTUS45 KSLC 300850 AAA
TAFSLC
TAF AMD
KSLC 300850Z 3009/3112 16005KT P6SM SKC
     FM301800 32008KT P6SM SCT200
     FM310300 15008KT P6SM BKN200=



000
FTUS45 KSLC 300539
TAFCDC
TAF
KCDC 300539Z 3006/3106 14006KT P6SM SCT200
     FM301800 22010KT P6SM FEW090 SCT200
     FM310300 17005KT P6SM BKN200=



000
FTUS45 KSLC 300539
TAFENV
TAF
KENV 300539Z 3006/3106 30008KT P6SM SCT200
     FM300900 VRB04KT P6SM SKC
     FM301600 11006KT P6SM SCT200
     FM310200 30007KT P6SM BKN200
      AMD LTD TO CLD VIS AND WIND=



000
FTUS45 KSLC 300539
TAFSLC
TAF
KSLC 300539Z 3006/3112 15006KT P6SM SKC
     FM301900 32008KT P6SM SCT200
     FM310300 15008KT P6SM BKN200=



000
FTUS45 KSLC 300539
TAFPVU
TAF
KPVU 300539Z 3006/3106 VRB04KT P6SM SKC
     FM302100 30007KT P6SM SCT200
     FM310400 VRB04KT P6SM BKN200
      AMD LTD TO CLD VIS AND WIND=



000
FTUS45 KSLC 300539
TAFOGD
TAF
KOGD 300539Z 3006/3106 17006KT P6SM SKC
     FM301800 29005KT P6SM SCT200
     FM310300 17006KT P6SM BKN200=



000
FTUS45 KSLC 300539
TAFOGD
TAF
KOGD 300539Z 3006/3106 17006KT P6SM SKC
     FM301800 29005KT P6SM SCT200
     FM310300 17006KT P6SM BKN200=



000
FTUS45 KSLC 300539
TAFBCE
TAF
KBCE 300539Z 3006/3106 27007KT P6SM SCT150
     FM301600 15009KT P6SM FEW070 SCT150
     FM302100 22010G15KT P6SM SCT070 SCT150
     FM310200 26006KT P6SM FEW070 BKN150=



000
FTUS45 KSLC 300539
TAFLGU
TAF
KLGU 300539Z 3006/3106 VRB05KT P6SM SKC=



000
FTUS45 KSLC 300539
TAFSGU
TAF
KSGU 300539Z 3006/3106 14006KT P6SM SCT200
     FM301200 VRB04KT P6SM SCT200
     FM302100 25007KT P6SM SCT200
     FM310400 14006KT P6SM BKN200
      AMD LTD TO CLD VIS AND WIND=



000
FTUS45 KSLC 300539
TAFLGU
TAF
KLGU 300539Z 3006/3106 VRB05KT P6SM SKC=



000
FTUS45 KSLC 300539
TAFENV
TAF
KENV 300539Z 3006/3106 30008KT P6SM SCT200
     FM300900 VRB04KT P6SM SKC
     FM301600 11006KT P6SM SCT200
     FM310200 30007KT P6SM BKN200
      AMD LTD TO CLD VIS AND WIND=



000
FTUS45 KSLC 300539
TAFPVU
TAF
KPVU 300539Z 3006/3106 VRB04KT P6SM SKC
     FM302100 30007KT P6SM SCT200
     FM310400 VRB04KT P6SM BKN200
      AMD LTD TO CLD VIS AND WIND=



000
FTUS45 KSLC 300539
TAFPVU
TAF
KPVU 300539Z 3006/3106 VRB04KT P6SM SKC
     FM302100 30007KT P6SM SCT200
     FM310400 VRB04KT P6SM BKN200
      AMD LTD TO CLD VIS AND WIND=



000
FTUS45 KSLC 300539
TAFSLC
TAF
KSLC 300539Z 3006/3112 15006KT P6SM SKC
     FM301900 32008KT P6SM SCT200
     FM310300 15008KT P6SM BKN200=



000
FTUS45 KSLC 300539
TAFENV
TAF
KENV 300539Z 3006/3106 30008KT P6SM SCT200
     FM300900 VRB04KT P6SM SKC
     FM301600 11006KT P6SM SCT200
     FM310200 30007KT P6SM BKN200
      AMD LTD TO CLD VIS AND WIND=



000
FTUS45 KSLC 300539
TAFBCE
TAF
KBCE 300539Z 3006/3106 27007KT P6SM SCT150
     FM301600 15009KT P6SM FEW070 SCT150
     FM302100 22010G15KT P6SM SCT070 SCT150
     FM310200 26006KT P6SM FEW070 BKN150=



000
FTUS45 KSLC 300539
TAFOGD
TAF
KOGD 300539Z 3006/3106 17006KT P6SM SKC
     FM301800 29005KT P6SM SCT200
     FM310300 17006KT P6SM BKN200=



000
FTUS45 KSLC 300539
TAFBCE
TAF
KBCE 300539Z 3006/3106 27007KT P6SM SCT150
     FM301600 15009KT P6SM FEW070 SCT150
     FM302100 22010G15KT P6SM SCT070 SCT150
     FM310200 26006KT P6SM FEW070 BKN150=



000
FTUS45 KSLC 300539
TAFCDC
TAF
KCDC 300539Z 3006/3106 14006KT P6SM SCT200
     FM301800 22010KT P6SM FEW090 SCT200
     FM310300 17005KT P6SM BKN200=



000
FTUS45 KSLC 300539
TAFLGU
TAF
KLGU 300539Z 3006/3106 VRB05KT P6SM SKC=



000
FTUS45 KSLC 300539
TAFSLC
TAF
KSLC 300539Z 3006/3112 15006KT P6SM SKC
     FM301900 32008KT P6SM SCT200
     FM310300 15008KT P6SM BKN200=



000
FTUS45 KSLC 300539
TAFSGU
TAF
KSGU 300539Z 3006/3106 14006KT P6SM SCT200
     FM301200 VRB04KT P6SM SCT200
     FM302100 25007KT P6SM SCT200
     FM310400 14006KT P6SM BKN200
      AMD LTD TO CLD VIS AND WIND=



000
FTUS45 KSLC 300539
TAFSLC
TAF
KSLC 300539Z 3006/3112 15006KT P6SM SKC
     FM301900 32008KT P6SM SCT200
     FM310300 15008KT P6SM BKN200=



000
FTUS45 KSLC 300539
TAFENV
TAF
KENV 300539Z 3006/3106 30008KT P6SM SCT200
     FM300900 VRB04KT P6SM SKC
     FM301600 11006KT P6SM SCT200
     FM310200 30007KT P6SM BKN200
      AMD LTD TO CLD VIS AND WIND=



000
FTUS45 KSLC 300539
TAFOGD
TAF
KOGD 300539Z 3006/3106 17006KT P6SM SKC
     FM301800 29005KT P6SM SCT200
     FM310300 17006KT P6SM BKN200=



000
FTUS45 KSLC 300539
TAFBCE
TAF
KBCE 300539Z 3006/3106 27007KT P6SM SCT150
     FM301600 15009KT P6SM FEW070 SCT150
     FM302100 22010G15KT P6SM SCT070 SCT150
     FM310200 26006KT P6SM FEW070 BKN150=



000
FTUS45 KSLC 300539
TAFLGU
TAF
KLGU 300539Z 3006/3106 VRB05KT P6SM SKC=



000
FTUS45 KSLC 300539
TAFCDC
TAF
KCDC 300539Z 3006/3106 14006KT P6SM SCT200
     FM301800 22010KT P6SM FEW090 SCT200
     FM310300 17005KT P6SM BKN200=



000
FTUS45 KSLC 300539
TAFSGU
TAF
KSGU 300539Z 3006/3106 14006KT P6SM SCT200
     FM301200 VRB04KT P6SM SCT200
     FM302100 25007KT P6SM SCT200
     FM310400 14006KT P6SM BKN200
      AMD LTD TO CLD VIS AND WIND=



000
FTUS45 KSLC 300539
TAFSGU
TAF
KSGU 300539Z 3006/3106 14006KT P6SM SCT200
     FM301200 VRB04KT P6SM SCT200
     FM302100 25007KT P6SM SCT200
     FM310400 14006KT P6SM BKN200
      AMD LTD TO CLD VIS AND WIND=



000
FTUS45 KSLC 300539
TAFCDC
TAF
KCDC 300539Z 3006/3106 14006KT P6SM SCT200
     FM301800 22010KT P6SM FEW090 SCT200
     FM310300 17005KT P6SM BKN200=



000
FTUS45 KSLC 300539
TAFPVU
TAF
KPVU 300539Z 3006/3106 VRB04KT P6SM SKC
     FM302100 30007KT P6SM SCT200
     FM310400 VRB04KT P6SM BKN200
      AMD LTD TO CLD VIS AND WIND=



000
FTUS45 KSLC 300309 AAA
TAFPVU
TAF AMD
KPVU 300309Z 3003/3024 31010KT P6SM SCT200
     FM300600 VRB05KT P6SM SKC
      AMD LTD TO CLD VIS AND WIND=



000
FTUS45 KSLC 300309 AAA
TAFPVU
TAF AMD
KPVU 300309Z 3003/3024 31010KT P6SM SCT200
     FM300600 VRB05KT P6SM SKC
      AMD LTD TO CLD VIS AND WIND=



000
FTUS45 KSLC 300242 AAB
TAFSLC
TAF AMD
KSLC 300242Z 3003/3106 16005KT P6SM SKC
     FM301900 30008KT P6SM SKC
     FM310300 15008KT P6SM SKC=



000
FTUS45 KSLC 300242 AAB
TAFSLC
TAF AMD
KSLC 300242Z 3003/3106 16005KT P6SM SKC
     FM301900 30008KT P6SM SKC
     FM310300 15008KT P6SM SKC=



000
FTUS45 KSLC 300242 AAB
TAFSLC
TAF AMD
KSLC 300242Z 3003/3106 16005KT P6SM SKC
     FM301900 30008KT P6SM SKC
     FM310300 15008KT P6SM SKC=



000
FTUS45 KSLC 300242 AAB
TAFSLC
TAF AMD
KSLC 300242Z 3003/3106 16005KT P6SM SKC
     FM301900 30008KT P6SM SKC
     FM310300 15008KT P6SM SKC=



000
FTUS45 KSLC 300054 AAA
TAFBCE
TAF AMD
KBCE 300054Z 3001/3024 03012KT P6SM SCT110
     FM300300 27007KT P6SM SCT110
     FM301800 15007KT P6SM SCT110=



000
FTUS45 KSLC 300054 AAA
TAFBCE
TAF AMD
KBCE 300054Z 3001/3024 03012KT P6SM SCT110
     FM300300 27007KT P6SM SCT110
     FM301800 15007KT P6SM SCT110=



000
FTUS45 KSLC 300054 AAA
TAFBCE
TAF AMD
KBCE 300054Z 3001/3024 03012KT P6SM SCT110
     FM300300 27007KT P6SM SCT110
     FM301800 15007KT P6SM SCT110=



000
FTUS45 KSLC 300054 AAA
TAFBCE
TAF AMD
KBCE 300054Z 3001/3024 03012KT P6SM SCT110
     FM300300 27007KT P6SM SCT110
     FM301800 15007KT P6SM SCT110=



000
FTUS45 KSLC 292320
TAFCDC
TAF
KCDC 292320Z 3000/3024 31007KT P6SM SCT130
     FM300200 VRB04KT P6SM SKC
     FM301800 22007KT P6SM SKC=



000
FTUS45 KSLC 292320
TAFPVU
TAF
KPVU 292320Z 3000/3024 VRB05KT P6SM SKC
      AMD LTD TO CLD VIS AND WIND=



000
FTUS45 KSLC 292320
TAFBCE
TAF
KBCE 292320Z 3000/3024 18012G17KT P6SM SCT110
     FM300300 27007KT P6SM SCT110
     FM301800 15007KT P6SM SCT110=



000
FTUS45 KSLC 292320
TAFSGU
TAF
KSGU 292320Z 3000/3024 VRB04KT P6SM SKC
      AMD LTD TO CLD VIS AND WIND=



000
FTUS45 KSLC 292320
TAFENV
TAF
KENV 292320Z 3000/3024 11006KT P6SM SKC
     FM300200 VRB04KT P6SM SKC
      AMD LTD TO CLD VIS AND WIND=



000
FTUS45 KSLC 292320
TAFLGU
TAF
KLGU 292320Z 3000/3024 VRB05KT P6SM SKC=



000
FTUS45 KSLC 292320
TAFSLC
TAF
KSLC 292320Z 3000/3106 33009KT P6SM SKC
     FM300300 16006KT P6SM SKC
     FM301900 30007KT P6SM SKC=



000
FTUS45 KSLC 292320
TAFPVU
TAF
KPVU 292320Z 3000/3024 VRB05KT P6SM SKC
      AMD LTD TO CLD VIS AND WIND=



000
FTUS45 KSLC 292320
TAFOGD
TAF
KOGD 292320Z 3000/3024 VRB05KT P6SM SKC
     FM300300 17006KT P6SM SKC
     FM301800 22005KT P6SM SKC=



000
FTUS45 KSLC 292320
TAFENV
TAF
KENV 292320Z 3000/3024 11006KT P6SM SKC
     FM300200 VRB04KT P6SM SKC
      AMD LTD TO CLD VIS AND WIND=



000
FTUS45 KSLC 292320
TAFCDC
TAF
KCDC 292320Z 3000/3024 31007KT P6SM SCT130
     FM300200 VRB04KT P6SM SKC
     FM301800 22007KT P6SM SKC=



000
FTUS45 KSLC 292320
TAFCDC
TAF
KCDC 292320Z 3000/3024 31007KT P6SM SCT130
     FM300200 VRB04KT P6SM SKC
     FM301800 22007KT P6SM SKC=



000
FTUS45 KSLC 292320
TAFSGU
TAF
KSGU 292320Z 3000/3024 VRB04KT P6SM SKC
      AMD LTD TO CLD VIS AND WIND=



000
FTUS45 KSLC 292320
TAFLGU
TAF
KLGU 292320Z 3000/3024 VRB05KT P6SM SKC=



000
FTUS45 KSLC 292320
TAFENV
TAF
KENV 292320Z 3000/3024 11006KT P6SM SKC
     FM300200 VRB04KT P6SM SKC
      AMD LTD TO CLD VIS AND WIND=



000
FTUS45 KSLC 292320
TAFBCE
TAF
KBCE 292320Z 3000/3024 18012G17KT P6SM SCT110
     FM300300 27007KT P6SM SCT110
     FM301800 15007KT P6SM SCT110=



000
FTUS45 KSLC 292320
TAFPVU
TAF
KPVU 292320Z 3000/3024 VRB05KT P6SM SKC
      AMD LTD TO CLD VIS AND WIND=



000
FTUS45 KSLC 292320
TAFSGU
TAF
KSGU 292320Z 3000/3024 VRB04KT P6SM SKC
      AMD LTD TO CLD VIS AND WIND=



000
FTUS45 KSLC 292320
TAFCDC
TAF
KCDC 292320Z 3000/3024 31007KT P6SM SCT130
     FM300200 VRB04KT P6SM SKC
     FM301800 22007KT P6SM SKC=



000
FTUS45 KSLC 292320
TAFOGD
TAF
KOGD 292320Z 3000/3024 VRB05KT P6SM SKC
     FM300300 17006KT P6SM SKC
     FM301800 22005KT P6SM SKC=



000
FTUS45 KSLC 292320
TAFLGU
TAF
KLGU 292320Z 3000/3024 VRB05KT P6SM SKC=



000
FTUS45 KSLC 292320
TAFLGU
TAF
KLGU 292320Z 3000/3024 VRB05KT P6SM SKC=



000
FTUS45 KSLC 292320
TAFBCE
TAF
KBCE 292320Z 3000/3024 18012G17KT P6SM SCT110
     FM300300 27007KT P6SM SCT110
     FM301800 15007KT P6SM SCT110=



000
FTUS45 KSLC 292320
TAFOGD
TAF
KOGD 292320Z 3000/3024 VRB05KT P6SM SKC
     FM300300 17006KT P6SM SKC
     FM301800 22005KT P6SM SKC=



000
FTUS45 KSLC 292320
TAFOGD
TAF
KOGD 292320Z 3000/3024 VRB05KT P6SM SKC
     FM300300 17006KT P6SM SKC
     FM301800 22005KT P6SM SKC=



000
FTUS45 KSLC 292320
TAFSLC
TAF
KSLC 292320Z 3000/3106 33009KT P6SM SKC
     FM300300 16006KT P6SM SKC
     FM301900 30007KT P6SM SKC=



000
FTUS45 KSLC 292320
TAFSLC
TAF
KSLC 292320Z 3000/3106 33009KT P6SM SKC
     FM300300 16006KT P6SM SKC
     FM301900 30007KT P6SM SKC=



000
FTUS45 KSLC 292320
TAFENV
TAF
KENV 292320Z 3000/3024 11006KT P6SM SKC
     FM300200 VRB04KT P6SM SKC
      AMD LTD TO CLD VIS AND WIND=



000
FTUS45 KSLC 292320
TAFPVU
TAF
KPVU 292320Z 3000/3024 VRB05KT P6SM SKC
      AMD LTD TO CLD VIS AND WIND=



000
FTUS45 KSLC 292320
TAFSGU
TAF
KSGU 292320Z 3000/3024 VRB04KT P6SM SKC
      AMD LTD TO CLD VIS AND WIND=



000
FTUS45 KSLC 292320
TAFBCE
TAF
KBCE 292320Z 3000/3024 18012G17KT P6SM SCT110
     FM300300 27007KT P6SM SCT110
     FM301800 15007KT P6SM SCT110=



000
FTUS45 KSLC 292320
TAFSLC
TAF
KSLC 292320Z 3000/3106 33009KT P6SM SKC
     FM300300 16006KT P6SM SKC
     FM301900 30007KT P6SM SKC=



000
FTUS45 KSLC 292216 AAA
TAFBCE
TAF AMD
KBCE 292216Z 2922/3018 22015G25KT P6SM SCT110
     FM300000 27005KT P6SM SCT130=



000
FTUS45 KSLC 292216 AAA
TAFBCE
TAF AMD
KBCE 292216Z 2922/3018 22015G25KT P6SM SCT110
     FM300000 27005KT P6SM SCT130=



000
FTUS45 KSLC 292105 AAA
TAFSLC
TAF AMD
KSLC 292105Z 2921/3024 33009KT P6SM SKC
     FM300300 16006KT P6SM SKC
     FM302000 30007KT P6SM SKC=



000
FTUS45 KSLC 292105 AAA
TAFSLC
TAF AMD
KSLC 292105Z 2921/3024 33009KT P6SM SKC
     FM300300 16006KT P6SM SKC
     FM302000 30007KT P6SM SKC=



    US Dept of Commerce
    National Oceanic and Atmospheric Administration
    National Weather Service
    1325 East West Highway
    Silver Spring, MD 20910
    Page Author: NWS Internet Services Team
Disclaimer
Information Quality
Credits
Glossary
Privacy Policy
Freedom of Information Act (FOIA)
About Us
Career Opportunities